<?xml version="1.0" encoding="UTF-8" standalone="no" ?>
<gpx xmlns="http://www.topografix.com/GPX/1/1" xmlns:xsi="http://www.w3.org/2001/XMLSchema-instance" xsi:schemaLocation="http://www.topografix.com/GPX/1/1 http://www.topografix.com/GPX/1/1/gpx.xsd" version="1.1" creator="VisuGPX - https://www.visugpx.com">
  <metadata>
    <name>Estavar / Targasonne</name>
    <desc><![CDATA[Belle boucle franco-espagnole sur beaux chemins, sentiers ou pistes au balisage sans faille; points de vues originaux sur la cerdagne, basse et haute, ainsi que sur llivia, l'enclave espagnole. Forêts, torrents, cultures, élevage mais aussi Chaos de targasonne sont des points d'intérêt de cette rando; possibilité de se ravitailler en boisson au camping de Targasonne (périodes d'ouverture)]]></desc>
  </metadata>
  <trk>
    <name><![CDATA[Estavar / Targasonne_1]]></name>
    <trkseg>
      <trkpt lat="42.46867" lon="1.99842">
        <ele>1225</ele>
        <time>2017-08-30T09:43:57Z</time>
      </trkpt>
      <trkpt lat="42.46863" lon="1.99838">
        <ele>1225</ele>
        <time>2017-08-30T09:44:17Z</time>
      </trkpt>
      <trkpt lat="42.46859" lon="1.99835">
        <ele>1225</ele>
        <time>2017-08-30T09:44:39Z</time>
      </trkpt>
      <trkpt lat="42.46854" lon="1.99824">
        <ele>1225</ele>
        <time>2017-08-30T09:45:05Z</time>
      </trkpt>
      <trkpt lat="42.46848" lon="1.99815">
        <ele>1225</ele>
        <time>2017-08-30T09:45:23Z</time>
      </trkpt>
      <trkpt lat="42.46844" lon="1.99812">
        <ele>1225</ele>
        <time>2017-08-30T09:45:28Z</time>
      </trkpt>
      <trkpt lat="42.46833" lon="1.99811">
        <ele>1222</ele>
        <time>2017-08-30T09:45:39Z</time>
      </trkpt>
      <trkpt lat="42.46829" lon="1.99809">
        <ele>1222</ele>
        <time>2017-08-30T09:45:43Z</time>
      </trkpt>
      <trkpt lat="42.46825" lon="1.99805">
        <ele>1222</ele>
        <time>2017-08-30T09:45:48Z</time>
      </trkpt>
      <trkpt lat="42.46819" lon="1.99794">
        <ele>1222</ele>
        <time>2017-08-30T09:46:00Z</time>
      </trkpt>
      <trkpt lat="42.4682" lon="1.99787">
        <ele>1222</ele>
        <time>2017-08-30T09:46:10Z</time>
      </trkpt>
      <trkpt lat="42.46823" lon="1.99782">
        <ele>1222</ele>
        <time>2017-08-30T09:46:15Z</time>
      </trkpt>
      <trkpt lat="42.46825" lon="1.99775">
        <ele>1222</ele>
        <time>2017-08-30T09:46:20Z</time>
      </trkpt>
      <trkpt lat="42.46826" lon="1.99754">
        <ele>1223</ele>
        <time>2017-08-30T09:46:35Z</time>
      </trkpt>
      <trkpt lat="42.46821" lon="1.99742">
        <ele>1222</ele>
        <time>2017-08-30T09:46:44Z</time>
      </trkpt>
      <trkpt lat="42.46817" lon="1.99738">
        <ele>1222</ele>
        <time>2017-08-30T09:46:48Z</time>
      </trkpt>
      <trkpt lat="42.46808" lon="1.99715">
        <ele>1221</ele>
        <time>2017-08-30T09:47:05Z</time>
      </trkpt>
      <trkpt lat="42.46804" lon="1.9971">
        <ele>1221</ele>
        <time>2017-08-30T09:47:11Z</time>
      </trkpt>
      <trkpt lat="42.46801" lon="1.99705">
        <ele>1221</ele>
        <time>2017-08-30T09:47:16Z</time>
      </trkpt>
      <trkpt lat="42.46789" lon="1.99674">
        <ele>1221</ele>
        <time>2017-08-30T09:47:40Z</time>
      </trkpt>
      <trkpt lat="42.46791" lon="1.99664">
        <ele>1220</ele>
        <time>2017-08-30T09:48:14Z</time>
      </trkpt>
      <trkpt lat="42.46794" lon="1.99654">
        <ele>1221</ele>
        <time>2017-08-30T09:48:27Z</time>
      </trkpt>
      <trkpt lat="42.46795" lon="1.99648">
        <ele>1221</ele>
        <time>2017-08-30T09:48:33Z</time>
      </trkpt>
      <trkpt lat="42.46793" lon="1.99642">
        <ele>1221</ele>
        <time>2017-08-30T09:48:37Z</time>
      </trkpt>
      <trkpt lat="42.46797" lon="1.99635">
        <ele>1221</ele>
        <time>2017-08-30T09:48:55Z</time>
      </trkpt>
      <trkpt lat="42.46792" lon="1.99615">
        <ele>1221</ele>
        <time>2017-08-30T09:49:11Z</time>
      </trkpt>
      <trkpt lat="42.46791" lon="1.99608">
        <ele>1221</ele>
        <time>2017-08-30T09:49:16Z</time>
      </trkpt>
      <trkpt lat="42.46798" lon="1.99575">
        <ele>1222</ele>
        <time>2017-08-30T09:49:42Z</time>
      </trkpt>
      <trkpt lat="42.46802" lon="1.99571">
        <ele>1222</ele>
        <time>2017-08-30T09:49:46Z</time>
      </trkpt>
      <trkpt lat="42.46806" lon="1.99568">
        <ele>1223</ele>
        <time>2017-08-30T09:49:51Z</time>
      </trkpt>
      <trkpt lat="42.4681" lon="1.99563">
        <ele>1223</ele>
        <time>2017-08-30T09:49:56Z</time>
      </trkpt>
      <trkpt lat="42.46806" lon="1.99551">
        <ele>1223</ele>
        <time>2017-08-30T09:50:06Z</time>
      </trkpt>
      <trkpt lat="42.46806" lon="1.99536">
        <ele>1223</ele>
        <time>2017-08-30T09:50:16Z</time>
      </trkpt>
      <trkpt lat="42.4681" lon="1.99524">
        <ele>1223</ele>
        <time>2017-08-30T09:50:27Z</time>
      </trkpt>
      <trkpt lat="42.46808" lon="1.99518">
        <ele>1223</ele>
        <time>2017-08-30T09:50:31Z</time>
      </trkpt>
      <trkpt lat="42.46807" lon="1.99497">
        <ele>1224</ele>
        <time>2017-08-30T09:50:44Z</time>
      </trkpt>
      <trkpt lat="42.46808" lon="1.99491">
        <ele>1224</ele>
        <time>2017-08-30T09:50:48Z</time>
      </trkpt>
      <trkpt lat="42.46811" lon="1.99485">
        <ele>1224</ele>
        <time>2017-08-30T09:50:53Z</time>
      </trkpt>
      <trkpt lat="42.46811" lon="1.99471">
        <ele>1224</ele>
        <time>2017-08-30T09:51:01Z</time>
      </trkpt>
      <trkpt lat="42.46812" lon="1.99459">
        <ele>1224</ele>
        <time>2017-08-30T09:51:09Z</time>
      </trkpt>
      <trkpt lat="42.46811" lon="1.99452">
        <ele>1224</ele>
        <time>2017-08-30T09:51:14Z</time>
      </trkpt>
      <trkpt lat="42.46811" lon="1.99444">
        <ele>1224</ele>
        <time>2017-08-30T09:51:18Z</time>
      </trkpt>
      <trkpt lat="42.46811" lon="1.99438">
        <ele>1224</ele>
        <time>2017-08-30T09:51:23Z</time>
      </trkpt>
      <trkpt lat="42.46812" lon="1.99431">
        <ele>1225</ele>
        <time>2017-08-30T09:51:29Z</time>
      </trkpt>
      <trkpt lat="42.46812" lon="1.99425">
        <ele>1225</ele>
        <time>2017-08-30T09:51:33Z</time>
      </trkpt>
      <trkpt lat="42.46814" lon="1.99412">
        <ele>1226</ele>
        <time>2017-08-30T09:51:41Z</time>
      </trkpt>
      <trkpt lat="42.46813" lon="1.99391">
        <ele>1225</ele>
        <time>2017-08-30T09:51:55Z</time>
      </trkpt>
      <trkpt lat="42.46825" lon="1.99364">
        <ele>1226</ele>
        <time>2017-08-30T09:52:35Z</time>
      </trkpt>
      <trkpt lat="42.46828" lon="1.99359">
        <ele>1226</ele>
        <time>2017-08-30T09:52:40Z</time>
      </trkpt>
      <trkpt lat="42.46832" lon="1.99346">
        <ele>1228</ele>
        <time>2017-08-30T09:52:49Z</time>
      </trkpt>
      <trkpt lat="42.46846" lon="1.9932">
        <ele>1231</ele>
        <time>2017-08-30T09:53:20Z</time>
      </trkpt>
      <trkpt lat="42.46853" lon="1.99311">
        <ele>1231</ele>
        <time>2017-08-30T09:53:29Z</time>
      </trkpt>
      <trkpt lat="42.46857" lon="1.99308">
        <ele>1231</ele>
        <time>2017-08-30T09:53:34Z</time>
      </trkpt>
      <trkpt lat="42.46862" lon="1.99295">
        <ele>1232</ele>
        <time>2017-08-30T09:53:42Z</time>
      </trkpt>
      <trkpt lat="42.4687" lon="1.99272">
        <ele>1232</ele>
        <time>2017-08-30T09:53:59Z</time>
      </trkpt>
      <trkpt lat="42.46873" lon="1.99267">
        <ele>1232</ele>
        <time>2017-08-30T09:54:04Z</time>
      </trkpt>
      <trkpt lat="42.46876" lon="1.9926">
        <ele>1232</ele>
        <time>2017-08-30T09:54:16Z</time>
      </trkpt>
      <trkpt lat="42.46877" lon="1.99253">
        <ele>1232</ele>
        <time>2017-08-30T09:54:21Z</time>
      </trkpt>
      <trkpt lat="42.46888" lon="1.9922">
        <ele>1230</ele>
        <time>2017-08-30T09:54:46Z</time>
      </trkpt>
      <trkpt lat="42.46889" lon="1.99213">
        <ele>1230</ele>
        <time>2017-08-30T09:54:51Z</time>
      </trkpt>
      <trkpt lat="42.4691" lon="1.99169">
        <ele>1231</ele>
        <time>2017-08-30T09:55:27Z</time>
      </trkpt>
      <trkpt lat="42.46914" lon="1.99161">
        <ele>1231</ele>
        <time>2017-08-30T09:55:33Z</time>
      </trkpt>
      <trkpt lat="42.46913" lon="1.99154">
        <ele>1230</ele>
        <time>2017-08-30T09:55:41Z</time>
      </trkpt>
      <trkpt lat="42.46918" lon="1.9915">
        <ele>1232</ele>
        <time>2017-08-30T09:55:52Z</time>
      </trkpt>
      <trkpt lat="42.4694" lon="1.99122">
        <ele>1232</ele>
        <time>2017-08-30T09:56:21Z</time>
      </trkpt>
      <trkpt lat="42.46954" lon="1.99112">
        <ele>1232</ele>
        <time>2017-08-30T09:56:35Z</time>
      </trkpt>
      <trkpt lat="42.46959" lon="1.9911">
        <ele>1232</ele>
        <time>2017-08-30T09:56:39Z</time>
      </trkpt>
      <trkpt lat="42.46963" lon="1.99105">
        <ele>1232</ele>
        <time>2017-08-30T09:56:43Z</time>
      </trkpt>
      <trkpt lat="42.46972" lon="1.99097">
        <ele>1233</ele>
        <time>2017-08-30T09:56:52Z</time>
      </trkpt>
      <trkpt lat="42.46983" lon="1.99082">
        <ele>1232</ele>
        <time>2017-08-30T09:57:06Z</time>
      </trkpt>
      <trkpt lat="42.4699" lon="1.99072">
        <ele>1232</ele>
        <time>2017-08-30T09:57:14Z</time>
      </trkpt>
      <trkpt lat="42.46991" lon="1.99065">
        <ele>1231</ele>
        <time>2017-08-30T09:57:18Z</time>
      </trkpt>
      <trkpt lat="42.47004" lon="1.99052">
        <ele>1234</ele>
        <time>2017-08-30T09:57:31Z</time>
      </trkpt>
      <trkpt lat="42.47005" lon="1.99046">
        <ele>1234</ele>
        <time>2017-08-30T09:57:35Z</time>
      </trkpt>
      <trkpt lat="42.47014" lon="1.9903">
        <ele>1233</ele>
        <time>2017-08-30T09:57:47Z</time>
      </trkpt>
      <trkpt lat="42.47023" lon="1.99014">
        <ele>1233</ele>
        <time>2017-08-30T09:57:59Z</time>
      </trkpt>
      <trkpt lat="42.47028" lon="1.99003">
        <ele>1233</ele>
        <time>2017-08-30T09:58:07Z</time>
      </trkpt>
      <trkpt lat="42.47031" lon="1.98995">
        <ele>1232</ele>
        <time>2017-08-30T09:58:17Z</time>
      </trkpt>
      <trkpt lat="42.47034" lon="1.98989">
        <ele>1232</ele>
        <time>2017-08-30T09:58:22Z</time>
      </trkpt>
      <trkpt lat="42.47037" lon="1.98976">
        <ele>1232</ele>
        <time>2017-08-30T09:58:30Z</time>
      </trkpt>
      <trkpt lat="42.4704" lon="1.98969">
        <ele>1232</ele>
        <time>2017-08-30T09:58:35Z</time>
      </trkpt>
      <trkpt lat="42.47041" lon="1.98963">
        <ele>1232</ele>
        <time>2017-08-30T09:58:39Z</time>
      </trkpt>
      <trkpt lat="42.47043" lon="1.98949">
        <ele>1232</ele>
        <time>2017-08-30T09:58:48Z</time>
      </trkpt>
      <trkpt lat="42.47044" lon="1.98944">
        <ele>1233</ele>
        <time>2017-08-30T09:58:52Z</time>
      </trkpt>
      <trkpt lat="42.47048" lon="1.98909">
        <ele>1233</ele>
        <time>2017-08-30T09:59:15Z</time>
      </trkpt>
      <trkpt lat="42.47046" lon="1.98888">
        <ele>1233</ele>
        <time>2017-08-30T09:59:25Z</time>
      </trkpt>
      <trkpt lat="42.47048" lon="1.98883">
        <ele>1233</ele>
        <time>2017-08-30T09:59:29Z</time>
      </trkpt>
      <trkpt lat="42.47048" lon="1.98875">
        <ele>1233</ele>
        <time>2017-08-30T09:59:33Z</time>
      </trkpt>
      <trkpt lat="42.47045" lon="1.98869">
        <ele>1233</ele>
        <time>2017-08-30T09:59:37Z</time>
      </trkpt>
      <trkpt lat="42.47046" lon="1.98856">
        <ele>1233</ele>
        <time>2017-08-30T09:59:46Z</time>
      </trkpt>
      <trkpt lat="42.47048" lon="1.9885">
        <ele>1233</ele>
        <time>2017-08-30T09:59:51Z</time>
      </trkpt>
      <trkpt lat="42.47051" lon="1.98844">
        <ele>1233</ele>
        <time>2017-08-30T09:59:56Z</time>
      </trkpt>
      <trkpt lat="42.47055" lon="1.98833">
        <ele>1234</ele>
        <time>2017-08-30T10:00:04Z</time>
      </trkpt>
      <trkpt lat="42.47058" lon="1.98827">
        <ele>1234</ele>
        <time>2017-08-30T10:00:08Z</time>
      </trkpt>
      <trkpt lat="42.47069" lon="1.98782">
        <ele>1235</ele>
        <time>2017-08-30T10:00:38Z</time>
      </trkpt>
      <trkpt lat="42.47072" lon="1.98769">
        <ele>1235</ele>
        <time>2017-08-30T10:00:46Z</time>
      </trkpt>
      <trkpt lat="42.47073" lon="1.98761">
        <ele>1236</ele>
        <time>2017-08-30T10:00:51Z</time>
      </trkpt>
      <trkpt lat="42.47073" lon="1.98755">
        <ele>1236</ele>
        <time>2017-08-30T10:00:55Z</time>
      </trkpt>
      <trkpt lat="42.47076" lon="1.98734">
        <ele>1237</ele>
        <time>2017-08-30T10:01:11Z</time>
      </trkpt>
      <trkpt lat="42.47071" lon="1.98708">
        <ele>1236</ele>
        <time>2017-08-30T10:01:28Z</time>
      </trkpt>
      <trkpt lat="42.47069" lon="1.98695">
        <ele>1236</ele>
        <time>2017-08-30T10:01:41Z</time>
      </trkpt>
      <trkpt lat="42.47067" lon="1.98689">
        <ele>1237</ele>
        <time>2017-08-30T10:01:45Z</time>
      </trkpt>
      <trkpt lat="42.47065" lon="1.98684">
        <ele>1237</ele>
        <time>2017-08-30T10:01:51Z</time>
      </trkpt>
      <trkpt lat="42.47064" lon="1.98678">
        <ele>1237</ele>
        <time>2017-08-30T10:01:56Z</time>
      </trkpt>
      <trkpt lat="42.47052" lon="1.98663">
        <ele>1241</ele>
        <time>2017-08-30T10:02:26Z</time>
      </trkpt>
      <trkpt lat="42.47048" lon="1.98661">
        <ele>1241</ele>
        <time>2017-08-30T10:02:31Z</time>
      </trkpt>
      <trkpt lat="42.47038" lon="1.98658">
        <ele>1241</ele>
        <time>2017-08-30T10:02:42Z</time>
      </trkpt>
      <trkpt lat="42.47034" lon="1.98653">
        <ele>1241</ele>
        <time>2017-08-30T10:02:56Z</time>
      </trkpt>
      <trkpt lat="42.47041" lon="1.98646">
        <ele>1242</ele>
        <time>2017-08-30T10:03:12Z</time>
      </trkpt>
      <trkpt lat="42.47043" lon="1.98639">
        <ele>1242</ele>
        <time>2017-08-30T10:03:18Z</time>
      </trkpt>
      <trkpt lat="42.47047" lon="1.98635">
        <ele>1242</ele>
        <time>2017-08-30T10:03:24Z</time>
      </trkpt>
      <trkpt lat="42.47049" lon="1.98629">
        <ele>1243</ele>
        <time>2017-08-30T10:03:30Z</time>
      </trkpt>
      <trkpt lat="42.47051" lon="1.98623">
        <ele>1243</ele>
        <time>2017-08-30T10:03:35Z</time>
      </trkpt>
      <trkpt lat="42.47057" lon="1.98605">
        <ele>1245</ele>
        <time>2017-08-30T10:03:50Z</time>
      </trkpt>
      <trkpt lat="42.47058" lon="1.98598">
        <ele>1245</ele>
        <time>2017-08-30T10:03:55Z</time>
      </trkpt>
      <trkpt lat="42.47062" lon="1.98595">
        <ele>1246</ele>
        <time>2017-08-30T10:04:00Z</time>
      </trkpt>
      <trkpt lat="42.47067" lon="1.98595">
        <ele>1246</ele>
        <time>2017-08-30T10:04:05Z</time>
      </trkpt>
      <trkpt lat="42.47076" lon="1.986">
        <ele>1246</ele>
        <time>2017-08-30T10:04:17Z</time>
      </trkpt>
      <trkpt lat="42.47083" lon="1.98598">
        <ele>1247</ele>
        <time>2017-08-30T10:04:34Z</time>
      </trkpt>
      <trkpt lat="42.47088" lon="1.98599">
        <ele>1248</ele>
        <time>2017-08-30T10:04:39Z</time>
      </trkpt>
      <trkpt lat="42.47111" lon="1.9861">
        <ele>1247</ele>
        <time>2017-08-30T10:05:03Z</time>
      </trkpt>
      <trkpt lat="42.47125" lon="1.98609">
        <ele>1248</ele>
        <time>2017-08-30T10:05:16Z</time>
      </trkpt>
      <trkpt lat="42.47135" lon="1.98614">
        <ele>1248</ele>
        <time>2017-08-30T10:05:27Z</time>
      </trkpt>
      <trkpt lat="42.47139" lon="1.98614">
        <ele>1248</ele>
        <time>2017-08-30T10:05:32Z</time>
      </trkpt>
      <trkpt lat="42.47144" lon="1.98616">
        <ele>1248</ele>
        <time>2017-08-30T10:05:37Z</time>
      </trkpt>
      <trkpt lat="42.4717" lon="1.98617">
        <ele>1251</ele>
        <time>2017-08-30T10:06:00Z</time>
      </trkpt>
      <trkpt lat="42.47179" lon="1.9862">
        <ele>1250</ele>
        <time>2017-08-30T10:06:09Z</time>
      </trkpt>
      <trkpt lat="42.47194" lon="1.98618">
        <ele>1251</ele>
        <time>2017-08-30T10:06:25Z</time>
      </trkpt>
      <trkpt lat="42.47204" lon="1.98616">
        <ele>1251</ele>
        <time>2017-08-30T10:06:32Z</time>
      </trkpt>
      <trkpt lat="42.47219" lon="1.98619">
        <ele>1251</ele>
        <time>2017-08-30T10:06:49Z</time>
      </trkpt>
      <trkpt lat="42.47228" lon="1.98624">
        <ele>1250</ele>
        <time>2017-08-30T10:07:00Z</time>
      </trkpt>
      <trkpt lat="42.47238" lon="1.98626">
        <ele>1250</ele>
        <time>2017-08-30T10:07:09Z</time>
      </trkpt>
      <trkpt lat="42.47248" lon="1.98623">
        <ele>1251</ele>
        <time>2017-08-30T10:07:37Z</time>
      </trkpt>
      <trkpt lat="42.47253" lon="1.98623">
        <ele>1252</ele>
        <time>2017-08-30T10:07:42Z</time>
      </trkpt>
      <trkpt lat="42.47261" lon="1.98619">
        <ele>1253</ele>
        <time>2017-08-30T10:07:54Z</time>
      </trkpt>
      <trkpt lat="42.47266" lon="1.98616">
        <ele>1253</ele>
        <time>2017-08-30T10:08:46Z</time>
      </trkpt>
      <trkpt lat="42.4727" lon="1.98613">
        <ele>1254</ele>
        <time>2017-08-30T10:08:53Z</time>
      </trkpt>
      <trkpt lat="42.47274" lon="1.9861">
        <ele>1254</ele>
        <time>2017-08-30T10:09:01Z</time>
      </trkpt>
      <trkpt lat="42.47279" lon="1.9861">
        <ele>1254</ele>
        <time>2017-08-30T10:09:06Z</time>
      </trkpt>
      <trkpt lat="42.47288" lon="1.98603">
        <ele>1254</ele>
        <time>2017-08-30T10:09:18Z</time>
      </trkpt>
      <trkpt lat="42.47306" lon="1.98595">
        <ele>1255</ele>
        <time>2017-08-30T10:09:37Z</time>
      </trkpt>
      <trkpt lat="42.47316" lon="1.98594">
        <ele>1256</ele>
        <time>2017-08-30T10:09:46Z</time>
      </trkpt>
      <trkpt lat="42.47326" lon="1.98596">
        <ele>1256</ele>
        <time>2017-08-30T10:09:57Z</time>
      </trkpt>
      <trkpt lat="42.47334" lon="1.98603">
        <ele>1257</ele>
        <time>2017-08-30T10:10:07Z</time>
      </trkpt>
      <trkpt lat="42.47346" lon="1.98619">
        <ele>1256</ele>
        <time>2017-08-30T10:10:34Z</time>
      </trkpt>
      <trkpt lat="42.47354" lon="1.98619">
        <ele>1256</ele>
        <time>2017-08-30T10:10:51Z</time>
      </trkpt>
      <trkpt lat="42.47358" lon="1.98622">
        <ele>1256</ele>
        <time>2017-08-30T10:11:04Z</time>
      </trkpt>
      <trkpt lat="42.47379" lon="1.98619">
        <ele>1257</ele>
        <time>2017-08-30T10:11:32Z</time>
      </trkpt>
      <trkpt lat="42.47399" lon="1.98617">
        <ele>1258</ele>
        <time>2017-08-30T10:11:52Z</time>
      </trkpt>
      <trkpt lat="42.47404" lon="1.98619">
        <ele>1258</ele>
        <time>2017-08-30T10:11:58Z</time>
      </trkpt>
      <trkpt lat="42.47413" lon="1.98619">
        <ele>1258</ele>
        <time>2017-08-30T10:12:06Z</time>
      </trkpt>
      <trkpt lat="42.47418" lon="1.9862">
        <ele>1260</ele>
        <time>2017-08-30T10:12:10Z</time>
      </trkpt>
      <trkpt lat="42.47433" lon="1.98619">
        <ele>1260</ele>
        <time>2017-08-30T10:12:22Z</time>
      </trkpt>
      <trkpt lat="42.47446" lon="1.98612">
        <ele>1260</ele>
        <time>2017-08-30T10:12:35Z</time>
      </trkpt>
      <trkpt lat="42.47451" lon="1.98611">
        <ele>1260</ele>
        <time>2017-08-30T10:12:40Z</time>
      </trkpt>
      <trkpt lat="42.47461" lon="1.98606">
        <ele>1261</ele>
        <time>2017-08-30T10:12:53Z</time>
      </trkpt>
      <trkpt lat="42.47466" lon="1.98603">
        <ele>1261</ele>
        <time>2017-08-30T10:12:57Z</time>
      </trkpt>
      <trkpt lat="42.47471" lon="1.98603">
        <ele>1261</ele>
        <time>2017-08-30T10:13:02Z</time>
      </trkpt>
      <trkpt lat="42.47487" lon="1.98601">
        <ele>1262</ele>
        <time>2017-08-30T10:13:16Z</time>
      </trkpt>
      <trkpt lat="42.47506" lon="1.98597">
        <ele>1264</ele>
        <time>2017-08-30T10:13:35Z</time>
      </trkpt>
      <trkpt lat="42.47516" lon="1.98593">
        <ele>1264</ele>
        <time>2017-08-30T10:13:46Z</time>
      </trkpt>
      <trkpt lat="42.47521" lon="1.98593">
        <ele>1264</ele>
        <time>2017-08-30T10:13:51Z</time>
      </trkpt>
      <trkpt lat="42.47545" lon="1.98601">
        <ele>1263</ele>
        <time>2017-08-30T10:14:16Z</time>
      </trkpt>
      <trkpt lat="42.4755" lon="1.98601">
        <ele>1264</ele>
        <time>2017-08-30T10:14:25Z</time>
      </trkpt>
      <trkpt lat="42.47554" lon="1.98604">
        <ele>1264</ele>
        <time>2017-08-30T10:14:30Z</time>
      </trkpt>
      <trkpt lat="42.47563" lon="1.98607">
        <ele>1264</ele>
        <time>2017-08-30T10:14:41Z</time>
      </trkpt>
      <trkpt lat="42.47568" lon="1.98608">
        <ele>1264</ele>
        <time>2017-08-30T10:14:47Z</time>
      </trkpt>
      <trkpt lat="42.47585" lon="1.98606">
        <ele>1267</ele>
        <time>2017-08-30T10:15:19Z</time>
      </trkpt>
      <trkpt lat="42.47594" lon="1.98601">
        <ele>1267</ele>
        <time>2017-08-30T10:15:29Z</time>
      </trkpt>
      <trkpt lat="42.47603" lon="1.98595">
        <ele>1268</ele>
        <time>2017-08-30T10:15:40Z</time>
      </trkpt>
      <trkpt lat="42.47608" lon="1.98592">
        <ele>1268</ele>
        <time>2017-08-30T10:15:47Z</time>
      </trkpt>
      <trkpt lat="42.47613" lon="1.98591">
        <ele>1267</ele>
        <time>2017-08-30T10:15:52Z</time>
      </trkpt>
      <trkpt lat="42.47618" lon="1.98589">
        <ele>1268</ele>
        <time>2017-08-30T10:15:57Z</time>
      </trkpt>
      <trkpt lat="42.47623" lon="1.98588">
        <ele>1268</ele>
        <time>2017-08-30T10:16:02Z</time>
      </trkpt>
      <trkpt lat="42.47628" lon="1.98585">
        <ele>1268</ele>
        <time>2017-08-30T10:16:08Z</time>
      </trkpt>
      <trkpt lat="42.47656" lon="1.98574">
        <ele>1279</ele>
        <time>2017-08-30T10:16:40Z</time>
      </trkpt>
      <trkpt lat="42.47681" lon="1.98567">
        <ele>1281</ele>
        <time>2017-08-30T10:17:07Z</time>
      </trkpt>
      <trkpt lat="42.47686" lon="1.98567">
        <ele>1282</ele>
        <time>2017-08-30T10:17:12Z</time>
      </trkpt>
      <trkpt lat="42.47705" lon="1.9856">
        <ele>1285</ele>
        <time>2017-08-30T10:17:32Z</time>
      </trkpt>
      <trkpt lat="42.47709" lon="1.98557">
        <ele>1285</ele>
        <time>2017-08-30T10:17:37Z</time>
      </trkpt>
      <trkpt lat="42.47722" lon="1.98548">
        <ele>1286</ele>
        <time>2017-08-30T10:17:52Z</time>
      </trkpt>
      <trkpt lat="42.47733" lon="1.98546">
        <ele>1286</ele>
        <time>2017-08-30T10:18:01Z</time>
      </trkpt>
      <trkpt lat="42.47737" lon="1.98543">
        <ele>1287</ele>
        <time>2017-08-30T10:18:07Z</time>
      </trkpt>
      <trkpt lat="42.47743" lon="1.98542">
        <ele>1287</ele>
        <time>2017-08-30T10:18:12Z</time>
      </trkpt>
      <trkpt lat="42.47748" lon="1.98542">
        <ele>1287</ele>
        <time>2017-08-30T10:19:39Z</time>
      </trkpt>
      <trkpt lat="42.47757" lon="1.98535">
        <ele>1286</ele>
        <time>2017-08-30T10:19:53Z</time>
      </trkpt>
      <trkpt lat="42.47767" lon="1.9852">
        <ele>1288</ele>
        <time>2017-08-30T10:20:09Z</time>
      </trkpt>
      <trkpt lat="42.47777" lon="1.98482">
        <ele>1299</ele>
        <time>2017-08-30T10:20:40Z</time>
      </trkpt>
      <trkpt lat="42.47779" lon="1.98476">
        <ele>1300</ele>
        <time>2017-08-30T10:20:45Z</time>
      </trkpt>
      <trkpt lat="42.47788" lon="1.98462">
        <ele>1302</ele>
        <time>2017-08-30T10:21:05Z</time>
      </trkpt>
      <trkpt lat="42.47795" lon="1.98453">
        <ele>1302</ele>
        <time>2017-08-30T10:21:14Z</time>
      </trkpt>
      <trkpt lat="42.47799" lon="1.9845">
        <ele>1302</ele>
        <time>2017-08-30T10:21:18Z</time>
      </trkpt>
      <trkpt lat="42.47807" lon="1.9844">
        <ele>1303</ele>
        <time>2017-08-30T10:21:27Z</time>
      </trkpt>
      <trkpt lat="42.47816" lon="1.98431">
        <ele>1303</ele>
        <time>2017-08-30T10:21:36Z</time>
      </trkpt>
      <trkpt lat="42.47826" lon="1.98427">
        <ele>1304</ele>
        <time>2017-08-30T10:21:46Z</time>
      </trkpt>
      <trkpt lat="42.4783" lon="1.98427">
        <ele>1304</ele>
        <time>2017-08-30T10:21:50Z</time>
      </trkpt>
      <trkpt lat="42.47839" lon="1.98433">
        <ele>1300</ele>
        <time>2017-08-30T10:21:59Z</time>
      </trkpt>
      <trkpt lat="42.47843" lon="1.98437">
        <ele>1299</ele>
        <time>2017-08-30T10:22:06Z</time>
      </trkpt>
      <trkpt lat="42.47848" lon="1.9844">
        <ele>1298</ele>
        <time>2017-08-30T10:22:11Z</time>
      </trkpt>
      <trkpt lat="42.47858" lon="1.98444">
        <ele>1298</ele>
        <time>2017-08-30T10:22:18Z</time>
      </trkpt>
      <trkpt lat="42.47879" lon="1.98459">
        <ele>1296</ele>
        <time>2017-08-30T10:22:44Z</time>
      </trkpt>
      <trkpt lat="42.47917" lon="1.98464">
        <ele>1299</ele>
        <time>2017-08-30T10:23:17Z</time>
      </trkpt>
      <trkpt lat="42.47927" lon="1.98465">
        <ele>1300</ele>
        <time>2017-08-30T10:23:26Z</time>
      </trkpt>
      <trkpt lat="42.47953" lon="1.98452">
        <ele>1301</ele>
        <time>2017-08-30T10:23:52Z</time>
      </trkpt>
      <trkpt lat="42.47965" lon="1.98441">
        <ele>1302</ele>
        <time>2017-08-30T10:24:10Z</time>
      </trkpt>
      <trkpt lat="42.47964" lon="1.98435">
        <ele>1302</ele>
        <time>2017-08-30T10:24:15Z</time>
      </trkpt>
      <trkpt lat="42.47972" lon="1.98414">
        <ele>1309</ele>
        <time>2017-08-30T10:26:24Z</time>
      </trkpt>
      <trkpt lat="42.47973" lon="1.98401">
        <ele>1310</ele>
        <time>2017-08-30T10:26:37Z</time>
      </trkpt>
      <trkpt lat="42.4798" lon="1.98381">
        <ele>1312</ele>
        <time>2017-08-30T10:27:09Z</time>
      </trkpt>
      <trkpt lat="42.47979" lon="1.98375">
        <ele>1313</ele>
        <time>2017-08-30T10:27:16Z</time>
      </trkpt>
      <trkpt lat="42.47979" lon="1.98368">
        <ele>1314</ele>
        <time>2017-08-30T10:27:24Z</time>
      </trkpt>
      <trkpt lat="42.47982" lon="1.98363">
        <ele>1315</ele>
        <time>2017-08-30T10:27:30Z</time>
      </trkpt>
      <trkpt lat="42.47982" lon="1.9835">
        <ele>1316</ele>
        <time>2017-08-30T10:27:41Z</time>
      </trkpt>
      <trkpt lat="42.47983" lon="1.98344">
        <ele>1317</ele>
        <time>2017-08-30T10:27:48Z</time>
      </trkpt>
      <trkpt lat="42.47976" lon="1.98327">
        <ele>1331</ele>
        <time>2017-08-30T10:28:20Z</time>
      </trkpt>
      <trkpt lat="42.47986" lon="1.98325">
        <ele>1328</ele>
        <time>2017-08-30T10:28:55Z</time>
      </trkpt>
      <trkpt lat="42.47992" lon="1.98316">
        <ele>1330</ele>
        <time>2017-08-30T10:29:09Z</time>
      </trkpt>
      <trkpt lat="42.47998" lon="1.98307">
        <ele>1332</ele>
        <time>2017-08-30T10:29:22Z</time>
      </trkpt>
      <trkpt lat="42.48003" lon="1.98296">
        <ele>1336</ele>
        <time>2017-08-30T10:29:35Z</time>
      </trkpt>
      <trkpt lat="42.48006" lon="1.98283">
        <ele>1339</ele>
        <time>2017-08-30T10:29:47Z</time>
      </trkpt>
      <trkpt lat="42.48011" lon="1.98274">
        <ele>1341</ele>
        <time>2017-08-30T10:29:55Z</time>
      </trkpt>
      <trkpt lat="42.4802" lon="1.98267">
        <ele>1342</ele>
        <time>2017-08-30T10:30:05Z</time>
      </trkpt>
      <trkpt lat="42.4802" lon="1.98268">
        <ele>1342</ele>
        <time>2017-08-30T10:32:52Z</time>
      </trkpt>
      <trkpt lat="42.48016" lon="1.98273">
        <ele>1341</ele>
        <time>2017-08-30T10:33:00Z</time>
      </trkpt>
      <trkpt lat="42.48012" lon="1.98284">
        <ele>1339</ele>
        <time>2017-08-30T10:33:07Z</time>
      </trkpt>
      <trkpt lat="42.48" lon="1.98303">
        <ele>1334</ele>
        <time>2017-08-30T10:33:28Z</time>
      </trkpt>
      <trkpt lat="42.47987" lon="1.98339">
        <ele>1317</ele>
        <time>2017-08-30T10:33:57Z</time>
      </trkpt>
      <trkpt lat="42.47991" lon="1.9835">
        <ele>1316</ele>
        <time>2017-08-30T10:34:06Z</time>
      </trkpt>
      <trkpt lat="42.47981" lon="1.98372">
        <ele>1314</ele>
        <time>2017-08-30T10:34:28Z</time>
      </trkpt>
      <trkpt lat="42.47981" lon="1.98384">
        <ele>1312</ele>
        <time>2017-08-30T10:34:43Z</time>
      </trkpt>
      <trkpt lat="42.47973" lon="1.98406">
        <ele>1310</ele>
        <time>2017-08-30T10:35:20Z</time>
      </trkpt>
      <trkpt lat="42.47975" lon="1.98416">
        <ele>1309</ele>
        <time>2017-08-30T10:36:46Z</time>
      </trkpt>
      <trkpt lat="42.47972" lon="1.98429">
        <ele>1302</ele>
        <time>2017-08-30T10:36:57Z</time>
      </trkpt>
      <trkpt lat="42.47975" lon="1.98435">
        <ele>1302</ele>
        <time>2017-08-30T10:37:23Z</time>
      </trkpt>
      <trkpt lat="42.47979" lon="1.98438">
        <ele>1302</ele>
        <time>2017-08-30T10:37:38Z</time>
      </trkpt>
      <trkpt lat="42.48013" lon="1.98449">
        <ele>1309</ele>
        <time>2017-08-30T10:38:15Z</time>
      </trkpt>
      <trkpt lat="42.48031" lon="1.98454">
        <ele>1310</ele>
        <time>2017-08-30T10:38:27Z</time>
      </trkpt>
      <trkpt lat="42.48046" lon="1.98459">
        <ele>1311</ele>
        <time>2017-08-30T10:38:49Z</time>
      </trkpt>
      <trkpt lat="42.48056" lon="1.98456">
        <ele>1312</ele>
        <time>2017-08-30T10:38:58Z</time>
      </trkpt>
      <trkpt lat="42.48064" lon="1.98447">
        <ele>1312</ele>
        <time>2017-08-30T10:39:14Z</time>
      </trkpt>
      <trkpt lat="42.48082" lon="1.98437">
        <ele>1314</ele>
        <time>2017-08-30T10:39:40Z</time>
      </trkpt>
      <trkpt lat="42.4811" lon="1.98432">
        <ele>1321</ele>
        <time>2017-08-30T10:40:07Z</time>
      </trkpt>
      <trkpt lat="42.48129" lon="1.98434">
        <ele>1323</ele>
        <time>2017-08-30T10:40:28Z</time>
      </trkpt>
      <trkpt lat="42.48145" lon="1.98422">
        <ele>1323</ele>
        <time>2017-08-30T10:40:49Z</time>
      </trkpt>
      <trkpt lat="42.48151" lon="1.98412">
        <ele>1325</ele>
        <time>2017-08-30T10:40:59Z</time>
      </trkpt>
      <trkpt lat="42.4816" lon="1.98408">
        <ele>1325</ele>
        <time>2017-08-30T10:41:10Z</time>
      </trkpt>
      <trkpt lat="42.48171" lon="1.98388">
        <ele>1333</ele>
        <time>2017-08-30T10:41:29Z</time>
      </trkpt>
      <trkpt lat="42.48181" lon="1.98388">
        <ele>1333</ele>
        <time>2017-08-30T10:41:39Z</time>
      </trkpt>
      <trkpt lat="42.48197" lon="1.98396">
        <ele>1334</ele>
        <time>2017-08-30T10:42:20Z</time>
      </trkpt>
      <trkpt lat="42.48214" lon="1.98397">
        <ele>1336</ele>
        <time>2017-08-30T10:42:52Z</time>
      </trkpt>
      <trkpt lat="42.48222" lon="1.98394">
        <ele>1337</ele>
        <time>2017-08-30T10:43:06Z</time>
      </trkpt>
      <trkpt lat="42.48243" lon="1.9838">
        <ele>1338</ele>
        <time>2017-08-30T10:43:33Z</time>
      </trkpt>
      <trkpt lat="42.48248" lon="1.98396">
        <ele>1338</ele>
        <time>2017-08-30T10:44:15Z</time>
      </trkpt>
      <trkpt lat="42.48253" lon="1.98374">
        <ele>1349</ele>
        <time>2017-08-30T10:44:52Z</time>
      </trkpt>
      <trkpt lat="42.48262" lon="1.98368">
        <ele>1350</ele>
        <time>2017-08-30T10:48:41Z</time>
      </trkpt>
      <trkpt lat="42.48258" lon="1.98369">
        <ele>1349</ele>
        <time>2017-08-30T11:15:53Z</time>
      </trkpt>
      <trkpt lat="42.48251" lon="1.98385">
        <ele>1349</ele>
        <time>2017-08-30T11:20:07Z</time>
      </trkpt>
      <trkpt lat="42.48243" lon="1.98405">
        <ele>1339</ele>
        <time>2017-08-30T11:20:37Z</time>
      </trkpt>
      <trkpt lat="42.48229" lon="1.98397">
        <ele>1337</ele>
        <time>2017-08-30T11:21:19Z</time>
      </trkpt>
      <trkpt lat="42.4822" lon="1.98406">
        <ele>1336</ele>
        <time>2017-08-30T11:21:39Z</time>
      </trkpt>
      <trkpt lat="42.48219" lon="1.98418">
        <ele>1340</ele>
        <time>2017-08-30T11:22:03Z</time>
      </trkpt>
      <trkpt lat="42.48215" lon="1.98429">
        <ele>1340</ele>
        <time>2017-08-30T11:22:14Z</time>
      </trkpt>
      <trkpt lat="42.48206" lon="1.98434">
        <ele>1339</ele>
        <time>2017-08-30T11:22:29Z</time>
      </trkpt>
      <trkpt lat="42.48203" lon="1.98446">
        <ele>1340</ele>
        <time>2017-08-30T11:22:42Z</time>
      </trkpt>
      <trkpt lat="42.48196" lon="1.98461">
        <ele>1341</ele>
        <time>2017-08-30T11:23:18Z</time>
      </trkpt>
      <trkpt lat="42.48205" lon="1.98466">
        <ele>1342</ele>
        <time>2017-08-30T11:23:44Z</time>
      </trkpt>
      <trkpt lat="42.4821" lon="1.98456">
        <ele>1342</ele>
        <time>2017-08-30T11:23:58Z</time>
      </trkpt>
      <trkpt lat="42.48219" lon="1.98452">
        <ele>1343</ele>
        <time>2017-08-30T11:24:09Z</time>
      </trkpt>
      <trkpt lat="42.48228" lon="1.98451">
        <ele>1344</ele>
        <time>2017-08-30T11:24:22Z</time>
      </trkpt>
      <trkpt lat="42.48247" lon="1.98442">
        <ele>1343</ele>
        <time>2017-08-30T11:24:43Z</time>
      </trkpt>
      <trkpt lat="42.48269" lon="1.98417">
        <ele>1357</ele>
        <time>2017-08-30T11:25:21Z</time>
      </trkpt>
      <trkpt lat="42.4828" lon="1.98395">
        <ele>1352</ele>
        <time>2017-08-30T11:25:39Z</time>
      </trkpt>
      <trkpt lat="42.48286" lon="1.98386">
        <ele>1353</ele>
        <time>2017-08-30T11:25:49Z</time>
      </trkpt>
      <trkpt lat="42.48305" lon="1.9834">
        <ele>1354</ele>
        <time>2017-08-30T11:26:20Z</time>
      </trkpt>
      <trkpt lat="42.48323" lon="1.98329">
        <ele>1356</ele>
        <time>2017-08-30T11:26:39Z</time>
      </trkpt>
      <trkpt lat="42.48332" lon="1.98328">
        <ele>1356</ele>
        <time>2017-08-30T11:26:48Z</time>
      </trkpt>
      <trkpt lat="42.48341" lon="1.9832">
        <ele>1362</ele>
        <time>2017-08-30T11:27:05Z</time>
      </trkpt>
      <trkpt lat="42.48374" lon="1.98304">
        <ele>1368</ele>
        <time>2017-08-30T11:27:56Z</time>
      </trkpt>
      <trkpt lat="42.4839" lon="1.98291">
        <ele>1370</ele>
        <time>2017-08-30T11:28:18Z</time>
      </trkpt>
      <trkpt lat="42.48418" lon="1.98293">
        <ele>1382</ele>
        <time>2017-08-30T11:28:50Z</time>
      </trkpt>
      <trkpt lat="42.48426" lon="1.98283">
        <ele>1382</ele>
        <time>2017-08-30T11:29:29Z</time>
      </trkpt>
      <trkpt lat="42.48415" lon="1.98276">
        <ele>1372</ele>
        <time>2017-08-30T11:31:23Z</time>
      </trkpt>
      <trkpt lat="42.48401" lon="1.98258">
        <ele>1372</ele>
        <time>2017-08-30T11:31:45Z</time>
      </trkpt>
      <trkpt lat="42.48392" lon="1.98253">
        <ele>1371</ele>
        <time>2017-08-30T11:32:02Z</time>
      </trkpt>
      <trkpt lat="42.48383" lon="1.98246">
        <ele>1380</ele>
        <time>2017-08-30T11:32:22Z</time>
      </trkpt>
      <trkpt lat="42.48377" lon="1.98237">
        <ele>1380</ele>
        <time>2017-08-30T11:32:34Z</time>
      </trkpt>
      <trkpt lat="42.48367" lon="1.98238">
        <ele>1379</ele>
        <time>2017-08-30T11:32:44Z</time>
      </trkpt>
      <trkpt lat="42.48357" lon="1.98239">
        <ele>1377</ele>
        <time>2017-08-30T11:32:56Z</time>
      </trkpt>
      <trkpt lat="42.48339" lon="1.98232">
        <ele>1375</ele>
        <time>2017-08-30T11:33:16Z</time>
      </trkpt>
      <trkpt lat="42.4833" lon="1.98232">
        <ele>1374</ele>
        <time>2017-08-30T11:33:26Z</time>
      </trkpt>
      <trkpt lat="42.48316" lon="1.98231">
        <ele>1376</ele>
        <time>2017-08-30T11:34:02Z</time>
      </trkpt>
      <trkpt lat="42.48306" lon="1.9823">
        <ele>1377</ele>
        <time>2017-08-30T11:34:14Z</time>
      </trkpt>
      <trkpt lat="42.48287" lon="1.98233">
        <ele>1378</ele>
        <time>2017-08-30T11:34:43Z</time>
      </trkpt>
      <trkpt lat="42.48268" lon="1.98231">
        <ele>1377</ele>
        <time>2017-08-30T11:35:05Z</time>
      </trkpt>
      <trkpt lat="42.48255" lon="1.9823">
        <ele>1377</ele>
        <time>2017-08-30T11:35:25Z</time>
      </trkpt>
      <trkpt lat="42.48246" lon="1.98226">
        <ele>1378</ele>
        <time>2017-08-30T11:35:38Z</time>
      </trkpt>
      <trkpt lat="42.48224" lon="1.98201">
        <ele>1384</ele>
        <time>2017-08-30T11:36:12Z</time>
      </trkpt>
      <trkpt lat="42.48197" lon="1.98186">
        <ele>1385</ele>
        <time>2017-08-30T11:36:46Z</time>
      </trkpt>
      <trkpt lat="42.48166" lon="1.98157">
        <ele>1390</ele>
        <time>2017-08-30T11:37:25Z</time>
      </trkpt>
      <trkpt lat="42.48153" lon="1.98142">
        <ele>1390</ele>
        <time>2017-08-30T11:38:01Z</time>
      </trkpt>
      <trkpt lat="42.48151" lon="1.98136">
        <ele>1390</ele>
        <time>2017-08-30T11:38:08Z</time>
      </trkpt>
      <trkpt lat="42.48147" lon="1.98131">
        <ele>1390</ele>
        <time>2017-08-30T11:38:14Z</time>
      </trkpt>
      <trkpt lat="42.48138" lon="1.98115">
        <ele>1391</ele>
        <time>2017-08-30T11:38:30Z</time>
      </trkpt>
      <trkpt lat="42.48136" lon="1.98108">
        <ele>1392</ele>
        <time>2017-08-30T11:38:57Z</time>
      </trkpt>
      <trkpt lat="42.48135" lon="1.98101">
        <ele>1392</ele>
        <time>2017-08-30T11:39:04Z</time>
      </trkpt>
      <trkpt lat="42.48123" lon="1.98071">
        <ele>1399</ele>
        <time>2017-08-30T11:39:28Z</time>
      </trkpt>
      <trkpt lat="42.48117" lon="1.98061">
        <ele>1398</ele>
        <time>2017-08-30T11:39:39Z</time>
      </trkpt>
      <trkpt lat="42.48115" lon="1.98055">
        <ele>1399</ele>
        <time>2017-08-30T11:39:45Z</time>
      </trkpt>
      <trkpt lat="42.48114" lon="1.98048">
        <ele>1399</ele>
        <time>2017-08-30T11:39:51Z</time>
      </trkpt>
      <trkpt lat="42.48115" lon="1.98041">
        <ele>1399</ele>
        <time>2017-08-30T11:39:57Z</time>
      </trkpt>
      <trkpt lat="42.48124" lon="1.98021">
        <ele>1401</ele>
        <time>2017-08-30T11:40:43Z</time>
      </trkpt>
      <trkpt lat="42.48128" lon="1.98013">
        <ele>1402</ele>
        <time>2017-08-30T11:41:36Z</time>
      </trkpt>
      <trkpt lat="42.48137" lon="1.98006">
        <ele>1404</ele>
        <time>2017-08-30T11:41:48Z</time>
      </trkpt>
      <trkpt lat="42.48142" lon="1.98005">
        <ele>1405</ele>
        <time>2017-08-30T11:41:52Z</time>
      </trkpt>
      <trkpt lat="42.4815" lon="1.98">
        <ele>1408</ele>
        <time>2017-08-30T11:42:00Z</time>
      </trkpt>
      <trkpt lat="42.4817" lon="1.9798">
        <ele>1413</ele>
        <time>2017-08-30T11:42:26Z</time>
      </trkpt>
      <trkpt lat="42.48197" lon="1.97963">
        <ele>1414</ele>
        <time>2017-08-30T11:42:56Z</time>
      </trkpt>
      <trkpt lat="42.48202" lon="1.97962">
        <ele>1414</ele>
        <time>2017-08-30T11:43:01Z</time>
      </trkpt>
      <trkpt lat="42.48206" lon="1.97958">
        <ele>1414</ele>
        <time>2017-08-30T11:43:07Z</time>
      </trkpt>
      <trkpt lat="42.48209" lon="1.97953">
        <ele>1414</ele>
        <time>2017-08-30T11:43:12Z</time>
      </trkpt>
      <trkpt lat="42.48213" lon="1.97949">
        <ele>1415</ele>
        <time>2017-08-30T11:43:18Z</time>
      </trkpt>
      <trkpt lat="42.48216" lon="1.97945">
        <ele>1415</ele>
        <time>2017-08-30T11:43:24Z</time>
      </trkpt>
      <trkpt lat="42.48218" lon="1.97938">
        <ele>1415</ele>
        <time>2017-08-30T11:43:29Z</time>
      </trkpt>
      <trkpt lat="42.48221" lon="1.97933">
        <ele>1415</ele>
        <time>2017-08-30T11:43:33Z</time>
      </trkpt>
      <trkpt lat="42.48226" lon="1.9793">
        <ele>1415</ele>
        <time>2017-08-30T11:43:37Z</time>
      </trkpt>
      <trkpt lat="42.4823" lon="1.97925">
        <ele>1416</ele>
        <time>2017-08-30T11:43:42Z</time>
      </trkpt>
      <trkpt lat="42.48234" lon="1.97921">
        <ele>1416</ele>
        <time>2017-08-30T11:43:46Z</time>
      </trkpt>
      <trkpt lat="42.48242" lon="1.97911">
        <ele>1416</ele>
        <time>2017-08-30T11:43:57Z</time>
      </trkpt>
      <trkpt lat="42.48263" lon="1.97895">
        <ele>1418</ele>
        <time>2017-08-30T11:44:18Z</time>
      </trkpt>
      <trkpt lat="42.48267" lon="1.9789">
        <ele>1418</ele>
        <time>2017-08-30T11:44:22Z</time>
      </trkpt>
      <trkpt lat="42.48286" lon="1.97876">
        <ele>1419</ele>
        <time>2017-08-30T11:44:41Z</time>
      </trkpt>
      <trkpt lat="42.48289" lon="1.97871">
        <ele>1419</ele>
        <time>2017-08-30T11:44:46Z</time>
      </trkpt>
      <trkpt lat="42.48303" lon="1.97863">
        <ele>1419</ele>
        <time>2017-08-30T11:44:58Z</time>
      </trkpt>
      <trkpt lat="42.48307" lon="1.97858">
        <ele>1419</ele>
        <time>2017-08-30T11:45:03Z</time>
      </trkpt>
      <trkpt lat="42.48311" lon="1.97855">
        <ele>1419</ele>
        <time>2017-08-30T11:45:08Z</time>
      </trkpt>
      <trkpt lat="42.48316" lon="1.97852">
        <ele>1419</ele>
        <time>2017-08-30T11:45:13Z</time>
      </trkpt>
      <trkpt lat="42.48324" lon="1.97844">
        <ele>1420</ele>
        <time>2017-08-30T11:45:22Z</time>
      </trkpt>
      <trkpt lat="42.48356" lon="1.97824">
        <ele>1419</ele>
        <time>2017-08-30T11:45:55Z</time>
      </trkpt>
      <trkpt lat="42.48385" lon="1.97836">
        <ele>1424</ele>
        <time>2017-08-30T11:46:28Z</time>
      </trkpt>
      <trkpt lat="42.4841" lon="1.9787">
        <ele>1425</ele>
        <time>2017-08-30T11:47:00Z</time>
      </trkpt>
      <trkpt lat="42.48413" lon="1.97876">
        <ele>1425</ele>
        <time>2017-08-30T11:47:05Z</time>
      </trkpt>
      <trkpt lat="42.48412" lon="1.97886">
        <ele>1425</ele>
        <time>2017-08-30T11:47:23Z</time>
      </trkpt>
      <trkpt lat="42.48412" lon="1.97892">
        <ele>1426</ele>
        <time>2017-08-30T11:47:35Z</time>
      </trkpt>
      <trkpt lat="42.48415" lon="1.97897">
        <ele>1426</ele>
        <time>2017-08-30T11:47:39Z</time>
      </trkpt>
      <trkpt lat="42.48432" lon="1.97931">
        <ele>1426</ele>
        <time>2017-08-30T11:48:05Z</time>
      </trkpt>
      <trkpt lat="42.48434" lon="1.97938">
        <ele>1426</ele>
        <time>2017-08-30T11:48:10Z</time>
      </trkpt>
      <trkpt lat="42.48429" lon="1.9794">
        <ele>1426</ele>
        <time>2017-08-30T11:48:19Z</time>
      </trkpt>
      <trkpt lat="42.48439" lon="1.97944">
        <ele>1426</ele>
        <time>2017-08-30T11:48:55Z</time>
      </trkpt>
      <trkpt lat="42.48448" lon="1.97951">
        <ele>1426</ele>
        <time>2017-08-30T11:49:02Z</time>
      </trkpt>
      <trkpt lat="42.48453" lon="1.97952">
        <ele>1426</ele>
        <time>2017-08-30T11:49:05Z</time>
      </trkpt>
      <trkpt lat="42.48456" lon="1.97958">
        <ele>1426</ele>
        <time>2017-08-30T11:49:12Z</time>
      </trkpt>
      <trkpt lat="42.48465" lon="1.97965">
        <ele>1425</ele>
        <time>2017-08-30T11:49:19Z</time>
      </trkpt>
      <trkpt lat="42.48469" lon="1.97966">
        <ele>1425</ele>
        <time>2017-08-30T11:49:24Z</time>
      </trkpt>
      <trkpt lat="42.48497" lon="1.97985">
        <ele>1425</ele>
        <time>2017-08-30T11:49:49Z</time>
      </trkpt>
      <trkpt lat="42.48522" lon="1.97999">
        <ele>1425</ele>
        <time>2017-08-30T11:50:22Z</time>
      </trkpt>
      <trkpt lat="42.48527" lon="1.98001">
        <ele>1427</ele>
        <time>2017-08-30T11:50:26Z</time>
      </trkpt>
      <trkpt lat="42.48537" lon="1.98005">
        <ele>1427</ele>
        <time>2017-08-30T11:50:35Z</time>
      </trkpt>
      <trkpt lat="42.48542" lon="1.98006">
        <ele>1427</ele>
        <time>2017-08-30T11:50:39Z</time>
      </trkpt>
      <trkpt lat="42.48547" lon="1.98007">
        <ele>1427</ele>
        <time>2017-08-30T11:50:43Z</time>
      </trkpt>
      <trkpt lat="42.48557" lon="1.98014">
        <ele>1427</ele>
        <time>2017-08-30T11:51:02Z</time>
      </trkpt>
      <trkpt lat="42.4857" lon="1.9802">
        <ele>1428</ele>
        <time>2017-08-30T11:51:15Z</time>
      </trkpt>
      <trkpt lat="42.48575" lon="1.98023">
        <ele>1428</ele>
        <time>2017-08-30T11:51:19Z</time>
      </trkpt>
      <trkpt lat="42.48589" lon="1.9803">
        <ele>1431</ele>
        <time>2017-08-30T11:51:32Z</time>
      </trkpt>
      <trkpt lat="42.48594" lon="1.98033">
        <ele>1432</ele>
        <time>2017-08-30T11:51:38Z</time>
      </trkpt>
      <trkpt lat="42.48599" lon="1.98036">
        <ele>1432</ele>
        <time>2017-08-30T11:51:43Z</time>
      </trkpt>
      <trkpt lat="42.48607" lon="1.98042">
        <ele>1432</ele>
        <time>2017-08-30T11:51:51Z</time>
      </trkpt>
      <trkpt lat="42.48612" lon="1.98046">
        <ele>1433</ele>
        <time>2017-08-30T11:51:56Z</time>
      </trkpt>
      <trkpt lat="42.48627" lon="1.9805">
        <ele>1433</ele>
        <time>2017-08-30T11:52:08Z</time>
      </trkpt>
      <trkpt lat="42.48646" lon="1.98062">
        <ele>1435</ele>
        <time>2017-08-30T11:52:28Z</time>
      </trkpt>
      <trkpt lat="42.48651" lon="1.98064">
        <ele>1435</ele>
        <time>2017-08-30T11:52:33Z</time>
      </trkpt>
      <trkpt lat="42.48665" lon="1.98068">
        <ele>1436</ele>
        <time>2017-08-30T11:52:48Z</time>
      </trkpt>
      <trkpt lat="42.4867" lon="1.98069">
        <ele>1441</ele>
        <time>2017-08-30T11:52:53Z</time>
      </trkpt>
      <trkpt lat="42.48681" lon="1.98073">
        <ele>1441</ele>
        <time>2017-08-30T11:53:04Z</time>
      </trkpt>
      <trkpt lat="42.48691" lon="1.98074">
        <ele>1442</ele>
        <time>2017-08-30T11:53:14Z</time>
      </trkpt>
      <trkpt lat="42.48701" lon="1.98079">
        <ele>1443</ele>
        <time>2017-08-30T11:53:22Z</time>
      </trkpt>
      <trkpt lat="42.4873" lon="1.98082">
        <ele>1447</ele>
        <time>2017-08-30T11:53:54Z</time>
      </trkpt>
      <trkpt lat="42.48741" lon="1.98084">
        <ele>1448</ele>
        <time>2017-08-30T11:54:11Z</time>
      </trkpt>
      <trkpt lat="42.48746" lon="1.98082">
        <ele>1449</ele>
        <time>2017-08-30T11:54:17Z</time>
      </trkpt>
      <trkpt lat="42.48755" lon="1.98064">
        <ele>1456</ele>
        <time>2017-08-30T11:55:00Z</time>
      </trkpt>
      <trkpt lat="42.48761" lon="1.98054">
        <ele>1457</ele>
        <time>2017-08-30T11:55:13Z</time>
      </trkpt>
      <trkpt lat="42.4877" lon="1.9803">
        <ele>1458</ele>
        <time>2017-08-30T11:55:39Z</time>
      </trkpt>
      <trkpt lat="42.48774" lon="1.98028">
        <ele>1459</ele>
        <time>2017-08-30T11:55:45Z</time>
      </trkpt>
      <trkpt lat="42.48778" lon="1.98023">
        <ele>1459</ele>
        <time>2017-08-30T11:55:51Z</time>
      </trkpt>
      <trkpt lat="42.48778" lon="1.98016">
        <ele>1459</ele>
        <time>2017-08-30T11:55:57Z</time>
      </trkpt>
      <trkpt lat="42.48778" lon="1.98009">
        <ele>1459</ele>
        <time>2017-08-30T11:56:06Z</time>
      </trkpt>
      <trkpt lat="42.48788" lon="1.98001">
        <ele>1460</ele>
        <time>2017-08-30T11:56:39Z</time>
      </trkpt>
      <trkpt lat="42.48791" lon="1.97994">
        <ele>1459</ele>
        <time>2017-08-30T11:56:53Z</time>
      </trkpt>
      <trkpt lat="42.48791" lon="1.97987">
        <ele>1459</ele>
        <time>2017-08-30T11:57:03Z</time>
      </trkpt>
      <trkpt lat="42.48797" lon="1.97976">
        <ele>1459</ele>
        <time>2017-08-30T11:57:15Z</time>
      </trkpt>
      <trkpt lat="42.488" lon="1.97972">
        <ele>1459</ele>
        <time>2017-08-30T11:57:20Z</time>
      </trkpt>
      <trkpt lat="42.48804" lon="1.97968">
        <ele>1460</ele>
        <time>2017-08-30T11:57:25Z</time>
      </trkpt>
      <trkpt lat="42.48807" lon="1.97961">
        <ele>1460</ele>
        <time>2017-08-30T11:57:31Z</time>
      </trkpt>
      <trkpt lat="42.48814" lon="1.97942">
        <ele>1460</ele>
        <time>2017-08-30T11:57:47Z</time>
      </trkpt>
      <trkpt lat="42.48817" lon="1.97937">
        <ele>1460</ele>
        <time>2017-08-30T11:57:51Z</time>
      </trkpt>
      <trkpt lat="42.48821" lon="1.97932">
        <ele>1461</ele>
        <time>2017-08-30T11:57:56Z</time>
      </trkpt>
      <trkpt lat="42.48825" lon="1.97931">
        <ele>1461</ele>
        <time>2017-08-30T11:58:00Z</time>
      </trkpt>
      <trkpt lat="42.4883" lon="1.97931">
        <ele>1462</ele>
        <time>2017-08-30T11:58:04Z</time>
      </trkpt>
      <trkpt lat="42.48838" lon="1.97941">
        <ele>1472</ele>
        <time>2017-08-30T11:58:14Z</time>
      </trkpt>
      <trkpt lat="42.48839" lon="1.97948">
        <ele>1473</ele>
        <time>2017-08-30T11:58:19Z</time>
      </trkpt>
      <trkpt lat="42.48838" lon="1.97968">
        <ele>1474</ele>
        <time>2017-08-30T11:58:35Z</time>
      </trkpt>
      <trkpt lat="42.4884" lon="1.97982">
        <ele>1474</ele>
        <time>2017-08-30T11:58:46Z</time>
      </trkpt>
      <trkpt lat="42.4884" lon="1.97994">
        <ele>1473</ele>
        <time>2017-08-30T11:58:57Z</time>
      </trkpt>
      <trkpt lat="42.48844" lon="1.98007">
        <ele>1475</ele>
        <time>2017-08-30T11:59:09Z</time>
      </trkpt>
      <trkpt lat="42.48844" lon="1.98015">
        <ele>1477</ele>
        <time>2017-08-30T11:59:27Z</time>
      </trkpt>
      <trkpt lat="42.4886" lon="1.9805">
        <ele>1480</ele>
        <time>2017-08-30T12:00:01Z</time>
      </trkpt>
      <trkpt lat="42.48866" lon="1.98062">
        <ele>1481</ele>
        <time>2017-08-30T12:00:11Z</time>
      </trkpt>
      <trkpt lat="42.48872" lon="1.98079">
        <ele>1482</ele>
        <time>2017-08-30T12:00:24Z</time>
      </trkpt>
      <trkpt lat="42.48873" lon="1.98086">
        <ele>1483</ele>
        <time>2017-08-30T12:00:31Z</time>
      </trkpt>
      <trkpt lat="42.48877" lon="1.98096">
        <ele>1483</ele>
        <time>2017-08-30T12:00:53Z</time>
      </trkpt>
      <trkpt lat="42.48878" lon="1.98103">
        <ele>1484</ele>
        <time>2017-08-30T12:00:58Z</time>
      </trkpt>
      <trkpt lat="42.48881" lon="1.98108">
        <ele>1484</ele>
        <time>2017-08-30T12:01:02Z</time>
      </trkpt>
      <trkpt lat="42.48885" lon="1.98112">
        <ele>1485</ele>
        <time>2017-08-30T12:01:04Z</time>
      </trkpt>
      <trkpt lat="42.48889" lon="1.98119">
        <ele>1485</ele>
        <time>2017-08-30T12:01:10Z</time>
      </trkpt>
      <trkpt lat="42.48889" lon="1.98126">
        <ele>1485</ele>
        <time>2017-08-30T12:01:17Z</time>
      </trkpt>
      <trkpt lat="42.48897" lon="1.9815">
        <ele>1487</ele>
        <time>2017-08-30T12:01:35Z</time>
      </trkpt>
      <trkpt lat="42.48898" lon="1.98157">
        <ele>1488</ele>
        <time>2017-08-30T12:01:40Z</time>
      </trkpt>
      <trkpt lat="42.48903" lon="1.98165">
        <ele>1489</ele>
        <time>2017-08-30T12:02:01Z</time>
      </trkpt>
      <trkpt lat="42.48905" lon="1.98171">
        <ele>1490</ele>
        <time>2017-08-30T12:02:07Z</time>
      </trkpt>
      <trkpt lat="42.48909" lon="1.98184">
        <ele>1489</ele>
        <time>2017-08-30T12:02:17Z</time>
      </trkpt>
      <trkpt lat="42.48915" lon="1.98197">
        <ele>1489</ele>
        <time>2017-08-30T12:02:34Z</time>
      </trkpt>
      <trkpt lat="42.48919" lon="1.98221">
        <ele>1503</ele>
        <time>2017-08-30T12:03:06Z</time>
      </trkpt>
      <trkpt lat="42.48932" lon="1.98243">
        <ele>1502</ele>
        <time>2017-08-30T12:03:24Z</time>
      </trkpt>
      <trkpt lat="42.48935" lon="1.98246">
        <ele>1503</ele>
        <time>2017-08-30T12:03:28Z</time>
      </trkpt>
      <trkpt lat="42.48939" lon="1.98259">
        <ele>1504</ele>
        <time>2017-08-30T12:03:38Z</time>
      </trkpt>
      <trkpt lat="42.48943" lon="1.98264">
        <ele>1505</ele>
        <time>2017-08-30T12:03:44Z</time>
      </trkpt>
      <trkpt lat="42.48946" lon="1.9827">
        <ele>1506</ele>
        <time>2017-08-30T12:03:59Z</time>
      </trkpt>
      <trkpt lat="42.48952" lon="1.98272">
        <ele>1507</ele>
        <time>2017-08-30T12:05:26Z</time>
      </trkpt>
      <trkpt lat="42.48958" lon="1.98274">
        <ele>1508</ele>
        <time>2017-08-30T12:06:01Z</time>
      </trkpt>
      <trkpt lat="42.4896" lon="1.98268">
        <ele>1509</ele>
        <time>2017-08-30T12:06:31Z</time>
      </trkpt>
      <trkpt lat="42.48958" lon="1.98263">
        <ele>1508</ele>
        <time>2017-08-30T12:08:28Z</time>
      </trkpt>
      <trkpt lat="42.48955" lon="1.98229">
        <ele>1508</ele>
        <time>2017-08-30T12:08:53Z</time>
      </trkpt>
      <trkpt lat="42.48956" lon="1.98223">
        <ele>1508</ele>
        <time>2017-08-30T12:08:57Z</time>
      </trkpt>
      <trkpt lat="42.48956" lon="1.98216">
        <ele>1508</ele>
        <time>2017-08-30T12:09:02Z</time>
      </trkpt>
      <trkpt lat="42.48959" lon="1.9821">
        <ele>1508</ele>
        <time>2017-08-30T12:09:08Z</time>
      </trkpt>
      <trkpt lat="42.48962" lon="1.98205">
        <ele>1508</ele>
        <time>2017-08-30T12:09:12Z</time>
      </trkpt>
      <trkpt lat="42.48963" lon="1.98157">
        <ele>1508</ele>
        <time>2017-08-30T12:09:42Z</time>
      </trkpt>
      <trkpt lat="42.48961" lon="1.9815">
        <ele>1508</ele>
        <time>2017-08-30T12:09:45Z</time>
      </trkpt>
      <trkpt lat="42.48965" lon="1.98145">
        <ele>1509</ele>
        <time>2017-08-30T12:09:49Z</time>
      </trkpt>
      <trkpt lat="42.4897" lon="1.98145">
        <ele>1510</ele>
        <time>2017-08-30T12:09:53Z</time>
      </trkpt>
      <trkpt lat="42.48975" lon="1.98146">
        <ele>1511</ele>
        <time>2017-08-30T12:09:58Z</time>
      </trkpt>
      <trkpt lat="42.48979" lon="1.98151">
        <ele>1512</ele>
        <time>2017-08-30T12:10:03Z</time>
      </trkpt>
      <trkpt lat="42.48981" lon="1.98165">
        <ele>1513</ele>
        <time>2017-08-30T12:10:14Z</time>
      </trkpt>
      <trkpt lat="42.48986" lon="1.98176">
        <ele>1514</ele>
        <time>2017-08-30T12:10:24Z</time>
      </trkpt>
      <trkpt lat="42.48988" lon="1.9819">
        <ele>1513</ele>
        <time>2017-08-30T12:10:33Z</time>
      </trkpt>
      <trkpt lat="42.48992" lon="1.98194">
        <ele>1513</ele>
        <time>2017-08-30T12:10:37Z</time>
      </trkpt>
      <trkpt lat="42.48996" lon="1.98199">
        <ele>1513</ele>
        <time>2017-08-30T12:10:41Z</time>
      </trkpt>
      <trkpt lat="42.48996" lon="1.98206">
        <ele>1513</ele>
        <time>2017-08-30T12:10:46Z</time>
      </trkpt>
      <trkpt lat="42.48998" lon="1.98213">
        <ele>1513</ele>
        <time>2017-08-30T12:10:51Z</time>
      </trkpt>
      <trkpt lat="42.49004" lon="1.98225">
        <ele>1526</ele>
        <time>2017-08-30T12:10:59Z</time>
      </trkpt>
      <trkpt lat="42.49005" lon="1.98238">
        <ele>1525</ele>
        <time>2017-08-30T12:11:08Z</time>
      </trkpt>
      <trkpt lat="42.49011" lon="1.98257">
        <ele>1525</ele>
        <time>2017-08-30T12:11:24Z</time>
      </trkpt>
      <trkpt lat="42.49026" lon="1.98282">
        <ele>1528</ele>
        <time>2017-08-30T12:11:43Z</time>
      </trkpt>
      <trkpt lat="42.49028" lon="1.98296">
        <ele>1528</ele>
        <time>2017-08-30T12:11:52Z</time>
      </trkpt>
      <trkpt lat="42.49024" lon="1.983">
        <ele>1528</ele>
        <time>2017-08-30T12:12:00Z</time>
      </trkpt>
      <trkpt lat="42.49028" lon="1.98311">
        <ele>1528</ele>
        <time>2017-08-30T12:12:35Z</time>
      </trkpt>
      <trkpt lat="42.49031" lon="1.98316">
        <ele>1528</ele>
        <time>2017-08-30T12:12:40Z</time>
      </trkpt>
      <trkpt lat="42.49036" lon="1.98328">
        <ele>1529</ele>
        <time>2017-08-30T12:12:49Z</time>
      </trkpt>
      <trkpt lat="42.49043" lon="1.98337">
        <ele>1529</ele>
        <time>2017-08-30T12:13:00Z</time>
      </trkpt>
      <trkpt lat="42.49049" lon="1.9834">
        <ele>1530</ele>
        <time>2017-08-30T12:13:03Z</time>
      </trkpt>
      <trkpt lat="42.49054" lon="1.98345">
        <ele>1531</ele>
        <time>2017-08-30T12:13:10Z</time>
      </trkpt>
      <trkpt lat="42.49056" lon="1.98351">
        <ele>1531</ele>
        <time>2017-08-30T12:13:15Z</time>
      </trkpt>
      <trkpt lat="42.4906" lon="1.98354">
        <ele>1531</ele>
        <time>2017-08-30T12:13:20Z</time>
      </trkpt>
      <trkpt lat="42.49066" lon="1.98366">
        <ele>1531</ele>
        <time>2017-08-30T12:13:31Z</time>
      </trkpt>
      <trkpt lat="42.49079" lon="1.98377">
        <ele>1532</ele>
        <time>2017-08-30T12:13:49Z</time>
      </trkpt>
      <trkpt lat="42.49082" lon="1.98382">
        <ele>1532</ele>
        <time>2017-08-30T12:13:55Z</time>
      </trkpt>
      <trkpt lat="42.49086" lon="1.98386">
        <ele>1543</ele>
        <time>2017-08-30T12:13:59Z</time>
      </trkpt>
      <trkpt lat="42.49094" lon="1.98395">
        <ele>1543</ele>
        <time>2017-08-30T12:14:10Z</time>
      </trkpt>
      <trkpt lat="42.49107" lon="1.98423">
        <ele>1544</ele>
        <time>2017-08-30T12:14:43Z</time>
      </trkpt>
      <trkpt lat="42.49124" lon="1.98446">
        <ele>1546</ele>
        <time>2017-08-30T12:15:07Z</time>
      </trkpt>
      <trkpt lat="42.49134" lon="1.98453">
        <ele>1547</ele>
        <time>2017-08-30T12:15:20Z</time>
      </trkpt>
      <trkpt lat="42.49149" lon="1.98484">
        <ele>1550</ele>
        <time>2017-08-30T12:16:01Z</time>
      </trkpt>
      <trkpt lat="42.49154" lon="1.98487">
        <ele>1551</ele>
        <time>2017-08-30T12:16:09Z</time>
      </trkpt>
      <trkpt lat="42.49158" lon="1.98493">
        <ele>1552</ele>
        <time>2017-08-30T12:16:14Z</time>
      </trkpt>
      <trkpt lat="42.49167" lon="1.985">
        <ele>1555</ele>
        <time>2017-08-30T12:16:25Z</time>
      </trkpt>
      <trkpt lat="42.49173" lon="1.98506">
        <ele>1556</ele>
        <time>2017-08-30T12:16:54Z</time>
      </trkpt>
      <trkpt lat="42.49182" lon="1.98499">
        <ele>1556</ele>
        <time>2017-08-30T12:17:06Z</time>
      </trkpt>
      <trkpt lat="42.49191" lon="1.98494">
        <ele>1556</ele>
        <time>2017-08-30T12:17:19Z</time>
      </trkpt>
      <trkpt lat="42.49202" lon="1.98496">
        <ele>1557</ele>
        <time>2017-08-30T12:17:43Z</time>
      </trkpt>
      <trkpt lat="42.49207" lon="1.98498">
        <ele>1557</ele>
        <time>2017-08-30T12:19:51Z</time>
      </trkpt>
      <trkpt lat="42.49212" lon="1.98504">
        <ele>1558</ele>
        <time>2017-08-30T12:21:40Z</time>
      </trkpt>
      <trkpt lat="42.49226" lon="1.98507">
        <ele>1559</ele>
        <time>2017-08-30T12:21:54Z</time>
      </trkpt>
      <trkpt lat="42.49237" lon="1.98506">
        <ele>1559</ele>
        <time>2017-08-30T12:22:03Z</time>
      </trkpt>
      <trkpt lat="42.49257" lon="1.98496">
        <ele>1561</ele>
        <time>2017-08-30T12:22:28Z</time>
      </trkpt>
      <trkpt lat="42.49271" lon="1.98486">
        <ele>1562</ele>
        <time>2017-08-30T12:22:39Z</time>
      </trkpt>
      <trkpt lat="42.49294" lon="1.98476">
        <ele>1562</ele>
        <time>2017-08-30T12:23:04Z</time>
      </trkpt>
      <trkpt lat="42.49325" lon="1.98473">
        <ele>1563</ele>
        <time>2017-08-30T12:23:30Z</time>
      </trkpt>
      <trkpt lat="42.4934" lon="1.98477">
        <ele>1565</ele>
        <time>2017-08-30T12:23:43Z</time>
      </trkpt>
      <trkpt lat="42.49344" lon="1.9848">
        <ele>1565</ele>
        <time>2017-08-30T12:23:48Z</time>
      </trkpt>
      <trkpt lat="42.49348" lon="1.98485">
        <ele>1566</ele>
        <time>2017-08-30T12:23:54Z</time>
      </trkpt>
      <trkpt lat="42.49355" lon="1.98486">
        <ele>1566</ele>
        <time>2017-08-30T12:24:12Z</time>
      </trkpt>
      <trkpt lat="42.49359" lon="1.98487">
        <ele>1565</ele>
        <time>2017-08-30T12:24:17Z</time>
      </trkpt>
      <trkpt lat="42.49364" lon="1.9849">
        <ele>1566</ele>
        <time>2017-08-30T12:24:22Z</time>
      </trkpt>
      <trkpt lat="42.49368" lon="1.98494">
        <ele>1566</ele>
        <time>2017-08-30T12:24:27Z</time>
      </trkpt>
      <trkpt lat="42.49374" lon="1.98496">
        <ele>1566</ele>
        <time>2017-08-30T12:24:31Z</time>
      </trkpt>
      <trkpt lat="42.49393" lon="1.9851">
        <ele>1568</ele>
        <time>2017-08-30T12:24:51Z</time>
      </trkpt>
      <trkpt lat="42.49418" lon="1.98518">
        <ele>1567</ele>
        <time>2017-08-30T12:25:17Z</time>
      </trkpt>
      <trkpt lat="42.49426" lon="1.98522">
        <ele>1567</ele>
        <time>2017-08-30T12:25:26Z</time>
      </trkpt>
      <trkpt lat="42.49437" lon="1.98523">
        <ele>1566</ele>
        <time>2017-08-30T12:25:32Z</time>
      </trkpt>
      <trkpt lat="42.49441" lon="1.98527">
        <ele>1566</ele>
        <time>2017-08-30T12:25:38Z</time>
      </trkpt>
      <trkpt lat="42.49446" lon="1.98528">
        <ele>1566</ele>
        <time>2017-08-30T12:25:43Z</time>
      </trkpt>
      <trkpt lat="42.4945" lon="1.98525">
        <ele>1566</ele>
        <time>2017-08-30T12:25:51Z</time>
      </trkpt>
      <trkpt lat="42.4946" lon="1.98521">
        <ele>1566</ele>
        <time>2017-08-30T12:26:01Z</time>
      </trkpt>
      <trkpt lat="42.49463" lon="1.98515">
        <ele>1566</ele>
        <time>2017-08-30T12:26:06Z</time>
      </trkpt>
      <trkpt lat="42.49464" lon="1.98509">
        <ele>1565</ele>
        <time>2017-08-30T12:26:12Z</time>
      </trkpt>
      <trkpt lat="42.49468" lon="1.98504">
        <ele>1565</ele>
        <time>2017-08-30T12:26:17Z</time>
      </trkpt>
      <trkpt lat="42.49472" lon="1.98492">
        <ele>1564</ele>
        <time>2017-08-30T12:26:25Z</time>
      </trkpt>
      <trkpt lat="42.49472" lon="1.98484">
        <ele>1564</ele>
        <time>2017-08-30T12:26:31Z</time>
      </trkpt>
      <trkpt lat="42.49481" lon="1.98462">
        <ele>1564</ele>
        <time>2017-08-30T12:26:55Z</time>
      </trkpt>
      <trkpt lat="42.49485" lon="1.98459">
        <ele>1564</ele>
        <time>2017-08-30T12:27:00Z</time>
      </trkpt>
      <trkpt lat="42.49492" lon="1.98454">
        <ele>1564</ele>
        <time>2017-08-30T12:27:23Z</time>
      </trkpt>
      <trkpt lat="42.4951" lon="1.98467">
        <ele>1564</ele>
        <time>2017-08-30T12:27:49Z</time>
      </trkpt>
      <trkpt lat="42.49519" lon="1.98482">
        <ele>1564</ele>
        <time>2017-08-30T12:28:02Z</time>
      </trkpt>
      <trkpt lat="42.49525" lon="1.98487">
        <ele>1564</ele>
        <time>2017-08-30T12:28:22Z</time>
      </trkpt>
      <trkpt lat="42.49535" lon="1.98488">
        <ele>1564</ele>
        <time>2017-08-30T12:28:34Z</time>
      </trkpt>
      <trkpt lat="42.49532" lon="1.98491">
        <ele>1564</ele>
        <time>2017-08-30T12:28:58Z</time>
      </trkpt>
      <trkpt lat="42.49523" lon="1.98488">
        <ele>1564</ele>
        <time>2017-08-30T12:29:06Z</time>
      </trkpt>
      <trkpt lat="42.49518" lon="1.98488">
        <ele>1564</ele>
        <time>2017-08-30T12:29:10Z</time>
      </trkpt>
      <trkpt lat="42.49516" lon="1.98494">
        <ele>1564</ele>
        <time>2017-08-30T12:29:15Z</time>
      </trkpt>
      <trkpt lat="42.49518" lon="1.98502">
        <ele>1564</ele>
        <time>2017-08-30T12:29:29Z</time>
      </trkpt>
      <trkpt lat="42.49523" lon="1.98528">
        <ele>1564</ele>
        <time>2017-08-30T12:29:46Z</time>
      </trkpt>
      <trkpt lat="42.49529" lon="1.98539">
        <ele>1564</ele>
        <time>2017-08-30T12:29:54Z</time>
      </trkpt>
      <trkpt lat="42.49531" lon="1.98545">
        <ele>1564</ele>
        <time>2017-08-30T12:29:58Z</time>
      </trkpt>
      <trkpt lat="42.49531" lon="1.98555">
        <ele>1564</ele>
        <time>2017-08-30T12:30:13Z</time>
      </trkpt>
      <trkpt lat="42.49533" lon="1.98562">
        <ele>1564</ele>
        <time>2017-08-30T12:30:23Z</time>
      </trkpt>
      <trkpt lat="42.49538" lon="1.98562">
        <ele>1564</ele>
        <time>2017-08-30T12:30:29Z</time>
      </trkpt>
      <trkpt lat="42.49551" lon="1.98556">
        <ele>1564</ele>
        <time>2017-08-30T12:30:45Z</time>
      </trkpt>
      <trkpt lat="42.49556" lon="1.98554">
        <ele>1565</ele>
        <time>2017-08-30T12:30:53Z</time>
      </trkpt>
      <trkpt lat="42.49561" lon="1.98554">
        <ele>1565</ele>
        <time>2017-08-30T12:30:56Z</time>
      </trkpt>
      <trkpt lat="42.49566" lon="1.98557">
        <ele>1565</ele>
        <time>2017-08-30T12:31:02Z</time>
      </trkpt>
      <trkpt lat="42.4957" lon="1.98562">
        <ele>1565</ele>
        <time>2017-08-30T12:31:07Z</time>
      </trkpt>
      <trkpt lat="42.49574" lon="1.98565">
        <ele>1565</ele>
        <time>2017-08-30T12:31:11Z</time>
      </trkpt>
      <trkpt lat="42.49581" lon="1.98582">
        <ele>1566</ele>
        <time>2017-08-30T12:31:27Z</time>
      </trkpt>
      <trkpt lat="42.49584" lon="1.98586">
        <ele>1566</ele>
        <time>2017-08-30T12:31:34Z</time>
      </trkpt>
      <trkpt lat="42.49587" lon="1.98596">
        <ele>1568</ele>
        <time>2017-08-30T12:31:58Z</time>
      </trkpt>
      <trkpt lat="42.49582" lon="1.98606">
        <ele>1565</ele>
        <time>2017-08-30T12:35:06Z</time>
      </trkpt>
      <trkpt lat="42.49586" lon="1.98603">
        <ele>1568</ele>
        <time>2017-08-30T12:35:10Z</time>
      </trkpt>
      <trkpt lat="42.49583" lon="1.98604">
        <ele>1568</ele>
        <time>2017-08-30T12:35:40Z</time>
      </trkpt>
      <trkpt lat="42.49579" lon="1.98597">
        <ele>1565</ele>
        <time>2017-08-30T12:36:14Z</time>
      </trkpt>
      <trkpt lat="42.49579" lon="1.9859">
        <ele>1565</ele>
        <time>2017-08-30T12:36:19Z</time>
      </trkpt>
      <trkpt lat="42.49572" lon="1.98571">
        <ele>1565</ele>
        <time>2017-08-30T12:36:44Z</time>
      </trkpt>
      <trkpt lat="42.49561" lon="1.98556">
        <ele>1565</ele>
        <time>2017-08-30T12:37:08Z</time>
      </trkpt>
      <trkpt lat="42.49555" lon="1.98555">
        <ele>1565</ele>
        <time>2017-08-30T12:37:14Z</time>
      </trkpt>
      <trkpt lat="42.49551" lon="1.98564">
        <ele>1565</ele>
        <time>2017-08-30T12:37:32Z</time>
      </trkpt>
      <trkpt lat="42.49546" lon="1.98563">
        <ele>1564</ele>
        <time>2017-08-30T12:37:42Z</time>
      </trkpt>
      <trkpt lat="42.49541" lon="1.98564">
        <ele>1564</ele>
        <time>2017-08-30T12:37:47Z</time>
      </trkpt>
      <trkpt lat="42.49536" lon="1.98566">
        <ele>1564</ele>
        <time>2017-08-30T12:37:53Z</time>
      </trkpt>
      <trkpt lat="42.49532" lon="1.9857">
        <ele>1564</ele>
        <time>2017-08-30T12:38:01Z</time>
      </trkpt>
      <trkpt lat="42.49537" lon="1.98574">
        <ele>1564</ele>
        <time>2017-08-30T12:38:16Z</time>
      </trkpt>
      <trkpt lat="42.4954" lon="1.98579">
        <ele>1564</ele>
        <time>2017-08-30T12:38:22Z</time>
      </trkpt>
      <trkpt lat="42.49543" lon="1.98583">
        <ele>1565</ele>
        <time>2017-08-30T12:38:32Z</time>
      </trkpt>
      <trkpt lat="42.49548" lon="1.9858">
        <ele>1565</ele>
        <time>2017-08-30T12:38:37Z</time>
      </trkpt>
      <trkpt lat="42.49557" lon="1.98575">
        <ele>1565</ele>
        <time>2017-08-30T12:38:46Z</time>
      </trkpt>
      <trkpt lat="42.49552" lon="1.98577">
        <ele>1565</ele>
        <time>2017-08-30T12:39:21Z</time>
      </trkpt>
      <trkpt lat="42.49548" lon="1.98585">
        <ele>1564</ele>
        <time>2017-08-30T12:40:18Z</time>
      </trkpt>
      <trkpt lat="42.49546" lon="1.98591">
        <ele>1564</ele>
        <time>2017-08-30T12:40:22Z</time>
      </trkpt>
      <trkpt lat="42.49544" lon="1.98597">
        <ele>1564</ele>
        <time>2017-08-30T12:40:28Z</time>
      </trkpt>
      <trkpt lat="42.49545" lon="1.98605">
        <ele>1564</ele>
        <time>2017-08-30T12:40:52Z</time>
      </trkpt>
      <trkpt lat="42.49548" lon="1.98611">
        <ele>1564</ele>
        <time>2017-08-30T12:40:57Z</time>
      </trkpt>
      <trkpt lat="42.49555" lon="1.98621">
        <ele>1564</ele>
        <time>2017-08-30T12:41:07Z</time>
      </trkpt>
      <trkpt lat="42.49563" lon="1.98629">
        <ele>1564</ele>
        <time>2017-08-30T12:41:17Z</time>
      </trkpt>
      <trkpt lat="42.49567" lon="1.98633">
        <ele>1564</ele>
        <time>2017-08-30T12:41:21Z</time>
      </trkpt>
      <trkpt lat="42.49575" lon="1.98641">
        <ele>1564</ele>
        <time>2017-08-30T12:41:31Z</time>
      </trkpt>
      <trkpt lat="42.49579" lon="1.98645">
        <ele>1564</ele>
        <time>2017-08-30T12:41:35Z</time>
      </trkpt>
      <trkpt lat="42.49585" lon="1.98652">
        <ele>1567</ele>
        <time>2017-08-30T12:41:52Z</time>
      </trkpt>
      <trkpt lat="42.49592" lon="1.9867">
        <ele>1565</ele>
        <time>2017-08-30T12:42:03Z</time>
      </trkpt>
      <trkpt lat="42.49593" lon="1.98677">
        <ele>1566</ele>
        <time>2017-08-30T12:42:07Z</time>
      </trkpt>
      <trkpt lat="42.49595" lon="1.98682">
        <ele>1566</ele>
        <time>2017-08-30T12:42:12Z</time>
      </trkpt>
      <trkpt lat="42.49597" lon="1.9869">
        <ele>1567</ele>
        <time>2017-08-30T12:42:17Z</time>
      </trkpt>
      <trkpt lat="42.49599" lon="1.98703">
        <ele>1567</ele>
        <time>2017-08-30T12:42:25Z</time>
      </trkpt>
      <trkpt lat="42.496" lon="1.9871">
        <ele>1567</ele>
        <time>2017-08-30T12:42:30Z</time>
      </trkpt>
      <trkpt lat="42.496" lon="1.98717">
        <ele>1567</ele>
        <time>2017-08-30T12:42:35Z</time>
      </trkpt>
      <trkpt lat="42.49594" lon="1.98726">
        <ele>1567</ele>
        <time>2017-08-30T12:42:46Z</time>
      </trkpt>
      <trkpt lat="42.49583" lon="1.9875">
        <ele>1564</ele>
        <time>2017-08-30T12:43:10Z</time>
      </trkpt>
      <trkpt lat="42.4958" lon="1.98762">
        <ele>1562</ele>
        <time>2017-08-30T12:43:23Z</time>
      </trkpt>
      <trkpt lat="42.49578" lon="1.98767">
        <ele>1562</ele>
        <time>2017-08-30T12:43:27Z</time>
      </trkpt>
      <trkpt lat="42.49581" lon="1.9878">
        <ele>1562</ele>
        <time>2017-08-30T12:43:35Z</time>
      </trkpt>
      <trkpt lat="42.49589" lon="1.98793">
        <ele>1569</ele>
        <time>2017-08-30T12:43:54Z</time>
      </trkpt>
      <trkpt lat="42.4959" lon="1.98799">
        <ele>1569</ele>
        <time>2017-08-30T12:43:59Z</time>
      </trkpt>
      <trkpt lat="42.49592" lon="1.98805">
        <ele>1570</ele>
        <time>2017-08-30T12:44:03Z</time>
      </trkpt>
      <trkpt lat="42.49593" lon="1.98812">
        <ele>1570</ele>
        <time>2017-08-30T12:44:12Z</time>
      </trkpt>
      <trkpt lat="42.49597" lon="1.98823">
        <ele>1570</ele>
        <time>2017-08-30T12:44:25Z</time>
      </trkpt>
      <trkpt lat="42.49606" lon="1.9883">
        <ele>1570</ele>
        <time>2017-08-30T12:44:34Z</time>
      </trkpt>
      <trkpt lat="42.49609" lon="1.98839">
        <ele>1573</ele>
        <time>2017-08-30T12:44:41Z</time>
      </trkpt>
      <trkpt lat="42.49606" lon="1.98887">
        <ele>1574</ele>
        <time>2017-08-30T12:45:13Z</time>
      </trkpt>
      <trkpt lat="42.49605" lon="1.98901">
        <ele>1574</ele>
        <time>2017-08-30T12:45:21Z</time>
      </trkpt>
      <trkpt lat="42.49606" lon="1.98908">
        <ele>1574</ele>
        <time>2017-08-30T12:45:25Z</time>
      </trkpt>
      <trkpt lat="42.49605" lon="1.98921">
        <ele>1575</ele>
        <time>2017-08-30T12:45:35Z</time>
      </trkpt>
      <trkpt lat="42.49607" lon="1.98929">
        <ele>1575</ele>
        <time>2017-08-30T12:45:41Z</time>
      </trkpt>
      <trkpt lat="42.49612" lon="1.9894">
        <ele>1575</ele>
        <time>2017-08-30T12:45:49Z</time>
      </trkpt>
      <trkpt lat="42.49614" lon="1.98947">
        <ele>1575</ele>
        <time>2017-08-30T12:45:54Z</time>
      </trkpt>
      <trkpt lat="42.49614" lon="1.98961">
        <ele>1575</ele>
        <time>2017-08-30T12:46:02Z</time>
      </trkpt>
      <trkpt lat="42.49616" lon="1.98976">
        <ele>1575</ele>
        <time>2017-08-30T12:46:10Z</time>
      </trkpt>
      <trkpt lat="42.49618" lon="1.98996">
        <ele>1575</ele>
        <time>2017-08-30T12:46:25Z</time>
      </trkpt>
      <trkpt lat="42.49617" lon="1.9901">
        <ele>1574</ele>
        <time>2017-08-30T12:46:33Z</time>
      </trkpt>
      <trkpt lat="42.49615" lon="1.99051">
        <ele>1574</ele>
        <time>2017-08-30T12:47:04Z</time>
      </trkpt>
      <trkpt lat="42.49619" lon="1.99063">
        <ele>1574</ele>
        <time>2017-08-30T12:47:17Z</time>
      </trkpt>
      <trkpt lat="42.49622" lon="1.99071">
        <ele>1574</ele>
        <time>2017-08-30T12:47:31Z</time>
      </trkpt>
      <trkpt lat="42.49626" lon="1.99099">
        <ele>1575</ele>
        <time>2017-08-30T12:48:09Z</time>
      </trkpt>
      <trkpt lat="42.49628" lon="1.99106">
        <ele>1575</ele>
        <time>2017-08-30T12:48:18Z</time>
      </trkpt>
      <trkpt lat="42.49636" lon="1.99123">
        <ele>1576</ele>
        <time>2017-08-30T12:48:36Z</time>
      </trkpt>
      <trkpt lat="42.49638" lon="1.99128">
        <ele>1576</ele>
        <time>2017-08-30T12:48:40Z</time>
      </trkpt>
      <trkpt lat="42.49644" lon="1.99147">
        <ele>1577</ele>
        <time>2017-08-30T12:48:57Z</time>
      </trkpt>
      <trkpt lat="42.49651" lon="1.99158">
        <ele>1578</ele>
        <time>2017-08-30T12:49:07Z</time>
      </trkpt>
      <trkpt lat="42.49658" lon="1.99167">
        <ele>1579</ele>
        <time>2017-08-30T12:49:17Z</time>
      </trkpt>
      <trkpt lat="42.49664" lon="1.99178">
        <ele>1579</ele>
        <time>2017-08-30T12:49:28Z</time>
      </trkpt>
      <trkpt lat="42.49668" lon="1.99182">
        <ele>1582</ele>
        <time>2017-08-30T12:49:36Z</time>
      </trkpt>
      <trkpt lat="42.49671" lon="1.99187">
        <ele>1583</ele>
        <time>2017-08-30T12:49:40Z</time>
      </trkpt>
      <trkpt lat="42.49664" lon="1.99195">
        <ele>1578</ele>
        <time>2017-08-30T12:49:53Z</time>
      </trkpt>
      <trkpt lat="42.49663" lon="1.99202">
        <ele>1578</ele>
        <time>2017-08-30T12:50:01Z</time>
      </trkpt>
      <trkpt lat="42.49657" lon="1.99242">
        <ele>1579</ele>
        <time>2017-08-30T12:50:34Z</time>
      </trkpt>
      <trkpt lat="42.49656" lon="1.99255">
        <ele>1579</ele>
        <time>2017-08-30T12:50:45Z</time>
      </trkpt>
      <trkpt lat="42.49654" lon="1.99262">
        <ele>1579</ele>
        <time>2017-08-30T12:50:49Z</time>
      </trkpt>
      <trkpt lat="42.49651" lon="1.99268">
        <ele>1579</ele>
        <time>2017-08-30T12:50:53Z</time>
      </trkpt>
      <trkpt lat="42.49649" lon="1.99275">
        <ele>1579</ele>
        <time>2017-08-30T12:50:57Z</time>
      </trkpt>
      <trkpt lat="42.4965" lon="1.99295">
        <ele>1579</ele>
        <time>2017-08-30T12:51:20Z</time>
      </trkpt>
      <trkpt lat="42.49648" lon="1.99302">
        <ele>1579</ele>
        <time>2017-08-30T12:51:29Z</time>
      </trkpt>
      <trkpt lat="42.4966" lon="1.99332">
        <ele>1581</ele>
        <time>2017-08-30T12:51:52Z</time>
      </trkpt>
      <trkpt lat="42.49667" lon="1.99343">
        <ele>1582</ele>
        <time>2017-08-30T12:52:00Z</time>
      </trkpt>
      <trkpt lat="42.49684" lon="1.99383">
        <ele>1582</ele>
        <time>2017-08-30T12:52:31Z</time>
      </trkpt>
      <trkpt lat="42.49687" lon="1.99403">
        <ele>1581</ele>
        <time>2017-08-30T12:52:43Z</time>
      </trkpt>
      <trkpt lat="42.49692" lon="1.99415">
        <ele>1581</ele>
        <time>2017-08-30T12:52:51Z</time>
      </trkpt>
      <trkpt lat="42.49695" lon="1.99435">
        <ele>1581</ele>
        <time>2017-08-30T12:53:06Z</time>
      </trkpt>
      <trkpt lat="42.49696" lon="1.99457">
        <ele>1581</ele>
        <time>2017-08-30T12:53:22Z</time>
      </trkpt>
      <trkpt lat="42.49699" lon="1.9947">
        <ele>1581</ele>
        <time>2017-08-30T12:53:29Z</time>
      </trkpt>
      <trkpt lat="42.49698" lon="1.99478">
        <ele>1581</ele>
        <time>2017-08-30T12:53:33Z</time>
      </trkpt>
      <trkpt lat="42.49702" lon="1.99505">
        <ele>1582</ele>
        <time>2017-08-30T12:53:51Z</time>
      </trkpt>
      <trkpt lat="42.497" lon="1.99539">
        <ele>1582</ele>
        <time>2017-08-30T12:54:13Z</time>
      </trkpt>
      <trkpt lat="42.49699" lon="1.99547">
        <ele>1582</ele>
        <time>2017-08-30T12:54:17Z</time>
      </trkpt>
      <trkpt lat="42.49701" lon="1.99572">
        <ele>1582</ele>
        <time>2017-08-30T12:54:39Z</time>
      </trkpt>
      <trkpt lat="42.49695" lon="1.99602">
        <ele>1582</ele>
        <time>2017-08-30T12:54:57Z</time>
      </trkpt>
      <trkpt lat="42.49687" lon="1.99618">
        <ele>1582</ele>
        <time>2017-08-30T12:55:10Z</time>
      </trkpt>
      <trkpt lat="42.49693" lon="1.99658">
        <ele>1582</ele>
        <time>2017-08-30T12:55:43Z</time>
      </trkpt>
      <trkpt lat="42.49695" lon="1.99664">
        <ele>1582</ele>
        <time>2017-08-30T12:55:48Z</time>
      </trkpt>
      <trkpt lat="42.49696" lon="1.99691">
        <ele>1582</ele>
        <time>2017-08-30T12:56:10Z</time>
      </trkpt>
      <trkpt lat="42.49698" lon="1.99698">
        <ele>1583</ele>
        <time>2017-08-30T12:56:15Z</time>
      </trkpt>
      <trkpt lat="42.49698" lon="1.99706">
        <ele>1583</ele>
        <time>2017-08-30T12:56:19Z</time>
      </trkpt>
      <trkpt lat="42.49704" lon="1.99725">
        <ele>1583</ele>
        <time>2017-08-30T12:56:31Z</time>
      </trkpt>
      <trkpt lat="42.49705" lon="1.99738">
        <ele>1583</ele>
        <time>2017-08-30T12:56:40Z</time>
      </trkpt>
      <trkpt lat="42.49704" lon="1.99752">
        <ele>1584</ele>
        <time>2017-08-30T12:56:48Z</time>
      </trkpt>
      <trkpt lat="42.49706" lon="1.99765">
        <ele>1585</ele>
        <time>2017-08-30T12:56:56Z</time>
      </trkpt>
      <trkpt lat="42.49709" lon="1.99771">
        <ele>1585</ele>
        <time>2017-08-30T12:57:01Z</time>
      </trkpt>
      <trkpt lat="42.49709" lon="1.99781">
        <ele>1585</ele>
        <time>2017-08-30T12:57:11Z</time>
      </trkpt>
      <trkpt lat="42.49708" lon="1.99787">
        <ele>1585</ele>
        <time>2017-08-30T12:57:17Z</time>
      </trkpt>
      <trkpt lat="42.49709" lon="1.99794">
        <ele>1585</ele>
        <time>2017-08-30T12:57:22Z</time>
      </trkpt>
      <trkpt lat="42.4971" lon="1.99813">
        <ele>1585</ele>
        <time>2017-08-30T12:57:46Z</time>
      </trkpt>
      <trkpt lat="42.49707" lon="1.99833">
        <ele>1586</ele>
        <time>2017-08-30T12:58:04Z</time>
      </trkpt>
      <trkpt lat="42.49704" lon="1.99846">
        <ele>1588</ele>
        <time>2017-08-30T12:58:15Z</time>
      </trkpt>
      <trkpt lat="42.49703" lon="1.99852">
        <ele>1588</ele>
        <time>2017-08-30T12:58:19Z</time>
      </trkpt>
      <trkpt lat="42.49698" lon="1.99875">
        <ele>1589</ele>
        <time>2017-08-30T12:58:44Z</time>
      </trkpt>
      <trkpt lat="42.49693" lon="1.99924">
        <ele>1592</ele>
        <time>2017-08-30T12:59:14Z</time>
      </trkpt>
      <trkpt lat="42.4969" lon="1.99937">
        <ele>1592</ele>
        <time>2017-08-30T12:59:22Z</time>
      </trkpt>
      <trkpt lat="42.49684" lon="1.99948">
        <ele>1592</ele>
        <time>2017-08-30T12:59:31Z</time>
      </trkpt>
      <trkpt lat="42.49682" lon="1.99954">
        <ele>1593</ele>
        <time>2017-08-30T12:59:36Z</time>
      </trkpt>
      <trkpt lat="42.49685" lon="1.99958">
        <ele>1593</ele>
        <time>2017-08-30T13:00:27Z</time>
      </trkpt>
      <trkpt lat="42.49688" lon="1.99967">
        <ele>1593</ele>
        <time>2017-08-30T13:01:23Z</time>
      </trkpt>
      <trkpt lat="42.49698" lon="1.9999">
        <ele>1594</ele>
        <time>2017-08-30T13:01:37Z</time>
      </trkpt>
      <trkpt lat="42.49699" lon="1.99996">
        <ele>1594</ele>
        <time>2017-08-30T13:01:43Z</time>
      </trkpt>
      <trkpt lat="42.49699" lon="2.00016">
        <ele>1596</ele>
        <time>2017-08-30T13:01:55Z</time>
      </trkpt>
      <trkpt lat="42.49701" lon="2.00022">
        <ele>1596</ele>
        <time>2017-08-30T13:01:59Z</time>
      </trkpt>
      <trkpt lat="42.49714" lon="2.00043">
        <ele>1597</ele>
        <time>2017-08-30T13:02:17Z</time>
      </trkpt>
      <trkpt lat="42.49722" lon="2.00053">
        <ele>1597</ele>
        <time>2017-08-30T13:02:30Z</time>
      </trkpt>
      <trkpt lat="42.4973" lon="2.00092">
        <ele>1599</ele>
        <time>2017-08-30T13:03:00Z</time>
      </trkpt>
      <trkpt lat="42.49742" lon="2.00115">
        <ele>1599</ele>
        <time>2017-08-30T13:03:20Z</time>
      </trkpt>
      <trkpt lat="42.49744" lon="2.00145">
        <ele>1600</ele>
        <time>2017-08-30T13:03:47Z</time>
      </trkpt>
      <trkpt lat="42.49743" lon="2.00151">
        <ele>1600</ele>
        <time>2017-08-30T13:03:51Z</time>
      </trkpt>
      <trkpt lat="42.49738" lon="2.00153">
        <ele>1600</ele>
        <time>2017-08-30T13:04:00Z</time>
      </trkpt>
      <trkpt lat="42.49723" lon="2.00171">
        <ele>1600</ele>
        <time>2017-08-30T13:04:18Z</time>
      </trkpt>
      <trkpt lat="42.49715" lon="2.00182">
        <ele>1600</ele>
        <time>2017-08-30T13:04:27Z</time>
      </trkpt>
      <trkpt lat="42.4971" lon="2.00193">
        <ele>1600</ele>
        <time>2017-08-30T13:04:35Z</time>
      </trkpt>
      <trkpt lat="42.49706" lon="2.00199">
        <ele>1599</ele>
        <time>2017-08-30T13:04:39Z</time>
      </trkpt>
      <trkpt lat="42.49697" lon="2.00205">
        <ele>1599</ele>
        <time>2017-08-30T13:04:48Z</time>
      </trkpt>
      <trkpt lat="42.49693" lon="2.00209">
        <ele>1599</ele>
        <time>2017-08-30T13:04:54Z</time>
      </trkpt>
      <trkpt lat="42.49688" lon="2.00212">
        <ele>1599</ele>
        <time>2017-08-30T13:05:02Z</time>
      </trkpt>
      <trkpt lat="42.49679" lon="2.00218">
        <ele>1599</ele>
        <time>2017-08-30T13:05:10Z</time>
      </trkpt>
      <trkpt lat="42.49677" lon="2.00224">
        <ele>1598</ele>
        <time>2017-08-30T13:05:14Z</time>
      </trkpt>
      <trkpt lat="42.49676" lon="2.00232">
        <ele>1598</ele>
        <time>2017-08-30T13:05:19Z</time>
      </trkpt>
      <trkpt lat="42.49668" lon="2.00262">
        <ele>1597</ele>
        <time>2017-08-30T13:05:49Z</time>
      </trkpt>
      <trkpt lat="42.49665" lon="2.00268">
        <ele>1596</ele>
        <time>2017-08-30T13:05:54Z</time>
      </trkpt>
      <trkpt lat="42.49665" lon="2.00275">
        <ele>1595</ele>
        <time>2017-08-30T13:05:59Z</time>
      </trkpt>
      <trkpt lat="42.49665" lon="2.00282">
        <ele>1595</ele>
        <time>2017-08-30T13:06:08Z</time>
      </trkpt>
      <trkpt lat="42.49679" lon="2.00303">
        <ele>1599</ele>
        <time>2017-08-30T13:06:29Z</time>
      </trkpt>
      <trkpt lat="42.49688" lon="2.00312">
        <ele>1599</ele>
        <time>2017-08-30T13:06:38Z</time>
      </trkpt>
      <trkpt lat="42.49689" lon="2.00318">
        <ele>1599</ele>
        <time>2017-08-30T13:06:42Z</time>
      </trkpt>
      <trkpt lat="42.49687" lon="2.00325">
        <ele>1598</ele>
        <time>2017-08-30T13:06:46Z</time>
      </trkpt>
      <trkpt lat="42.49683" lon="2.00336">
        <ele>1598</ele>
        <time>2017-08-30T13:06:54Z</time>
      </trkpt>
      <trkpt lat="42.49683" lon="2.00342">
        <ele>1598</ele>
        <time>2017-08-30T13:06:58Z</time>
      </trkpt>
      <trkpt lat="42.49673" lon="2.00388">
        <ele>1598</ele>
        <time>2017-08-30T13:07:27Z</time>
      </trkpt>
      <trkpt lat="42.49673" lon="2.00395">
        <ele>1597</ele>
        <time>2017-08-30T13:07:32Z</time>
      </trkpt>
      <trkpt lat="42.49668" lon="2.00414">
        <ele>1593</ele>
        <time>2017-08-30T13:07:45Z</time>
      </trkpt>
      <trkpt lat="42.49669" lon="2.00426">
        <ele>1593</ele>
        <time>2017-08-30T13:08:03Z</time>
      </trkpt>
      <trkpt lat="42.49668" lon="2.00446">
        <ele>1593</ele>
        <time>2017-08-30T13:08:17Z</time>
      </trkpt>
      <trkpt lat="42.49676" lon="2.00478">
        <ele>1590</ele>
        <time>2017-08-30T13:08:54Z</time>
      </trkpt>
      <trkpt lat="42.49684" lon="2.00495">
        <ele>1588</ele>
        <time>2017-08-30T13:09:06Z</time>
      </trkpt>
      <trkpt lat="42.49709" lon="2.00531">
        <ele>1583</ele>
        <time>2017-08-30T13:09:39Z</time>
      </trkpt>
      <trkpt lat="42.49712" lon="2.00535">
        <ele>1583</ele>
        <time>2017-08-30T13:09:46Z</time>
      </trkpt>
      <trkpt lat="42.49715" lon="2.00542">
        <ele>1582</ele>
        <time>2017-08-30T13:09:54Z</time>
      </trkpt>
      <trkpt lat="42.49716" lon="2.00547">
        <ele>1582</ele>
        <time>2017-08-30T13:09:58Z</time>
      </trkpt>
      <trkpt lat="42.49723" lon="2.00557">
        <ele>1582</ele>
        <time>2017-08-30T13:10:07Z</time>
      </trkpt>
      <trkpt lat="42.49753" lon="2.00587">
        <ele>1581</ele>
        <time>2017-08-30T13:10:40Z</time>
      </trkpt>
      <trkpt lat="42.49769" lon="2.00603">
        <ele>1582</ele>
        <time>2017-08-30T13:10:55Z</time>
      </trkpt>
      <trkpt lat="42.49772" lon="2.00608">
        <ele>1582</ele>
        <time>2017-08-30T13:10:59Z</time>
      </trkpt>
      <trkpt lat="42.49782" lon="2.00622">
        <ele>1582</ele>
        <time>2017-08-30T13:11:12Z</time>
      </trkpt>
      <trkpt lat="42.49785" lon="2.00628">
        <ele>1582</ele>
        <time>2017-08-30T13:11:17Z</time>
      </trkpt>
      <trkpt lat="42.49801" lon="2.00644">
        <ele>1582</ele>
        <time>2017-08-30T13:11:33Z</time>
      </trkpt>
      <trkpt lat="42.49805" lon="2.00648">
        <ele>1582</ele>
        <time>2017-08-30T13:11:38Z</time>
      </trkpt>
      <trkpt lat="42.49808" lon="2.00658">
        <ele>1581</ele>
        <time>2017-08-30T13:11:55Z</time>
      </trkpt>
      <trkpt lat="42.49814" lon="2.00678">
        <ele>1581</ele>
        <time>2017-08-30T13:12:16Z</time>
      </trkpt>
      <trkpt lat="42.49818" lon="2.00682">
        <ele>1581</ele>
        <time>2017-08-30T13:12:21Z</time>
      </trkpt>
      <trkpt lat="42.49817" lon="2.00689">
        <ele>1581</ele>
        <time>2017-08-30T13:12:26Z</time>
      </trkpt>
      <trkpt lat="42.49814" lon="2.00694">
        <ele>1581</ele>
        <time>2017-08-30T13:12:34Z</time>
      </trkpt>
      <trkpt lat="42.49813" lon="2.00701">
        <ele>1581</ele>
        <time>2017-08-30T13:12:38Z</time>
      </trkpt>
      <trkpt lat="42.49812" lon="2.00707">
        <ele>1581</ele>
        <time>2017-08-30T13:12:42Z</time>
      </trkpt>
      <trkpt lat="42.49809" lon="2.00712">
        <ele>1582</ele>
        <time>2017-08-30T13:12:46Z</time>
      </trkpt>
      <trkpt lat="42.49804" lon="2.00713">
        <ele>1582</ele>
        <time>2017-08-30T13:12:51Z</time>
      </trkpt>
      <trkpt lat="42.49799" lon="2.00712">
        <ele>1582</ele>
        <time>2017-08-30T13:12:55Z</time>
      </trkpt>
      <trkpt lat="42.49794" lon="2.0071">
        <ele>1582</ele>
        <time>2017-08-30T13:13:00Z</time>
      </trkpt>
      <trkpt lat="42.49778" lon="2.00706">
        <ele>1582</ele>
        <time>2017-08-30T13:13:12Z</time>
      </trkpt>
      <trkpt lat="42.49773" lon="2.00704">
        <ele>1582</ele>
        <time>2017-08-30T13:13:18Z</time>
      </trkpt>
      <trkpt lat="42.49768" lon="2.00706">
        <ele>1582</ele>
        <time>2017-08-30T13:13:24Z</time>
      </trkpt>
      <trkpt lat="42.49743" lon="2.00701">
        <ele>1584</ele>
        <time>2017-08-30T13:13:55Z</time>
      </trkpt>
      <trkpt lat="42.49738" lon="2.00701">
        <ele>1584</ele>
        <time>2017-08-30T13:14:01Z</time>
      </trkpt>
      <trkpt lat="42.49734" lon="2.00704">
        <ele>1585</ele>
        <time>2017-08-30T13:14:07Z</time>
      </trkpt>
      <trkpt lat="42.4973" lon="2.00705">
        <ele>1585</ele>
        <time>2017-08-30T13:14:15Z</time>
      </trkpt>
      <trkpt lat="42.49725" lon="2.00702">
        <ele>1585</ele>
        <time>2017-08-30T13:14:22Z</time>
      </trkpt>
      <trkpt lat="42.49715" lon="2.00698">
        <ele>1585</ele>
        <time>2017-08-30T13:14:31Z</time>
      </trkpt>
      <trkpt lat="42.49711" lon="2.00697">
        <ele>1585</ele>
        <time>2017-08-30T13:14:35Z</time>
      </trkpt>
      <trkpt lat="42.49705" lon="2.00699">
        <ele>1585</ele>
        <time>2017-08-30T13:14:40Z</time>
      </trkpt>
      <trkpt lat="42.49701" lon="2.007">
        <ele>1585</ele>
        <time>2017-08-30T13:14:47Z</time>
      </trkpt>
      <trkpt lat="42.49696" lon="2.00697">
        <ele>1585</ele>
        <time>2017-08-30T13:14:56Z</time>
      </trkpt>
      <trkpt lat="42.49688" lon="2.00698">
        <ele>1585</ele>
        <time>2017-08-30T13:15:19Z</time>
      </trkpt>
      <trkpt lat="42.49684" lon="2.00698">
        <ele>1585</ele>
        <time>2017-08-30T13:15:29Z</time>
      </trkpt>
      <trkpt lat="42.49677" lon="2.007">
        <ele>1586</ele>
        <time>2017-08-30T13:15:47Z</time>
      </trkpt>
      <trkpt lat="42.49665" lon="2.007">
        <ele>1588</ele>
        <time>2017-08-30T13:16:28Z</time>
      </trkpt>
      <trkpt lat="42.4966" lon="2.007">
        <ele>1588</ele>
        <time>2017-08-30T13:16:34Z</time>
      </trkpt>
      <trkpt lat="42.49652" lon="2.00708">
        <ele>1590</ele>
        <time>2017-08-30T13:16:46Z</time>
      </trkpt>
      <trkpt lat="42.49654" lon="2.00713">
        <ele>1591</ele>
        <time>2017-08-30T13:16:55Z</time>
      </trkpt>
      <trkpt lat="42.49637" lon="2.00721">
        <ele>1592</ele>
        <time>2017-08-30T13:17:29Z</time>
      </trkpt>
      <trkpt lat="42.49632" lon="2.00721">
        <ele>1592</ele>
        <time>2017-08-30T13:17:33Z</time>
      </trkpt>
      <trkpt lat="42.49627" lon="2.00722">
        <ele>1592</ele>
        <time>2017-08-30T13:17:39Z</time>
      </trkpt>
      <trkpt lat="42.49622" lon="2.00722">
        <ele>1592</ele>
        <time>2017-08-30T13:17:46Z</time>
      </trkpt>
      <trkpt lat="42.49618" lon="2.0072">
        <ele>1592</ele>
        <time>2017-08-30T13:17:53Z</time>
      </trkpt>
      <trkpt lat="42.49609" lon="2.00713">
        <ele>1591</ele>
        <time>2017-08-30T13:18:02Z</time>
      </trkpt>
      <trkpt lat="42.49602" lon="2.00711">
        <ele>1591</ele>
        <time>2017-08-30T13:18:33Z</time>
      </trkpt>
      <trkpt lat="42.49596" lon="2.0071">
        <ele>1590</ele>
        <time>2017-08-30T13:18:38Z</time>
      </trkpt>
      <trkpt lat="42.4959" lon="2.00711">
        <ele>1591</ele>
        <time>2017-08-30T13:18:42Z</time>
      </trkpt>
      <trkpt lat="42.49586" lon="2.00709">
        <ele>1590</ele>
        <time>2017-08-30T13:18:47Z</time>
      </trkpt>
      <trkpt lat="42.49582" lon="2.00705">
        <ele>1592</ele>
        <time>2017-08-30T13:18:54Z</time>
      </trkpt>
      <trkpt lat="42.49571" lon="2.00702">
        <ele>1592</ele>
        <time>2017-08-30T13:19:14Z</time>
      </trkpt>
      <trkpt lat="42.49566" lon="2.007">
        <ele>1591</ele>
        <time>2017-08-30T13:19:18Z</time>
      </trkpt>
      <trkpt lat="42.49562" lon="2.00696">
        <ele>1591</ele>
        <time>2017-08-30T13:19:23Z</time>
      </trkpt>
      <trkpt lat="42.49558" lon="2.00692">
        <ele>1591</ele>
        <time>2017-08-30T13:19:28Z</time>
      </trkpt>
      <trkpt lat="42.49551" lon="2.00685">
        <ele>1590</ele>
        <time>2017-08-30T13:19:39Z</time>
      </trkpt>
      <trkpt lat="42.49546" lon="2.00683">
        <ele>1591</ele>
        <time>2017-08-30T13:19:45Z</time>
      </trkpt>
      <trkpt lat="42.49536" lon="2.00682">
        <ele>1591</ele>
        <time>2017-08-30T13:19:56Z</time>
      </trkpt>
      <trkpt lat="42.49531" lon="2.0068">
        <ele>1591</ele>
        <time>2017-08-30T13:20:01Z</time>
      </trkpt>
      <trkpt lat="42.4953" lon="2.00674">
        <ele>1591</ele>
        <time>2017-08-30T13:20:07Z</time>
      </trkpt>
      <trkpt lat="42.49532" lon="2.00668">
        <ele>1590</ele>
        <time>2017-08-30T13:20:14Z</time>
      </trkpt>
      <trkpt lat="42.49537" lon="2.00664">
        <ele>1576</ele>
        <time>2017-08-30T13:20:19Z</time>
      </trkpt>
      <trkpt lat="42.49541" lon="2.00664">
        <ele>1575</ele>
        <time>2017-08-30T13:20:25Z</time>
      </trkpt>
      <trkpt lat="42.49546" lon="2.00664">
        <ele>1575</ele>
        <time>2017-08-30T13:20:30Z</time>
      </trkpt>
      <trkpt lat="42.49545" lon="2.00658">
        <ele>1575</ele>
        <time>2017-08-30T13:20:37Z</time>
      </trkpt>
      <trkpt lat="42.49542" lon="2.00653">
        <ele>1574</ele>
        <time>2017-08-30T13:20:41Z</time>
      </trkpt>
      <trkpt lat="42.49538" lon="2.0065">
        <ele>1574</ele>
        <time>2017-08-30T13:20:46Z</time>
      </trkpt>
      <trkpt lat="42.49533" lon="2.00649">
        <ele>1574</ele>
        <time>2017-08-30T13:20:51Z</time>
      </trkpt>
      <trkpt lat="42.49529" lon="2.00651">
        <ele>1575</ele>
        <time>2017-08-30T13:20:57Z</time>
      </trkpt>
      <trkpt lat="42.4952" lon="2.00649">
        <ele>1576</ele>
        <time>2017-08-30T13:21:17Z</time>
      </trkpt>
      <trkpt lat="42.4951" lon="2.00645">
        <ele>1576</ele>
        <time>2017-08-30T13:21:27Z</time>
      </trkpt>
      <trkpt lat="42.49505" lon="2.00644">
        <ele>1576</ele>
        <time>2017-08-30T13:21:31Z</time>
      </trkpt>
      <trkpt lat="42.495" lon="2.00642">
        <ele>1581</ele>
        <time>2017-08-30T13:21:36Z</time>
      </trkpt>
      <trkpt lat="42.49496" lon="2.00638">
        <ele>1581</ele>
        <time>2017-08-30T13:21:41Z</time>
      </trkpt>
      <trkpt lat="42.49491" lon="2.00638">
        <ele>1581</ele>
        <time>2017-08-30T13:21:47Z</time>
      </trkpt>
      <trkpt lat="42.49483" lon="2.00645">
        <ele>1582</ele>
        <time>2017-08-30T13:22:03Z</time>
      </trkpt>
      <trkpt lat="42.49479" lon="2.0065">
        <ele>1583</ele>
        <time>2017-08-30T13:22:12Z</time>
      </trkpt>
      <trkpt lat="42.49474" lon="2.00652">
        <ele>1584</ele>
        <time>2017-08-30T13:22:21Z</time>
      </trkpt>
      <trkpt lat="42.49467" lon="2.00652">
        <ele>1584</ele>
        <time>2017-08-30T13:22:37Z</time>
      </trkpt>
      <trkpt lat="42.49452" lon="2.00649">
        <ele>1586</ele>
        <time>2017-08-30T13:23:06Z</time>
      </trkpt>
      <trkpt lat="42.49447" lon="2.00649">
        <ele>1587</ele>
        <time>2017-08-30T13:24:48Z</time>
      </trkpt>
      <trkpt lat="42.49443" lon="2.0065">
        <ele>1588</ele>
        <time>2017-08-30T13:25:07Z</time>
      </trkpt>
      <trkpt lat="42.49431" lon="2.00645">
        <ele>1589</ele>
        <time>2017-08-30T13:25:40Z</time>
      </trkpt>
      <trkpt lat="42.49426" lon="2.00644">
        <ele>1590</ele>
        <time>2017-08-30T13:25:45Z</time>
      </trkpt>
      <trkpt lat="42.49421" lon="2.00645">
        <ele>1591</ele>
        <time>2017-08-30T13:25:53Z</time>
      </trkpt>
      <trkpt lat="42.49425" lon="2.00653">
        <ele>1594</ele>
        <time>2017-08-30T13:26:10Z</time>
      </trkpt>
      <trkpt lat="42.49427" lon="2.00666">
        <ele>1598</ele>
        <time>2017-08-30T13:26:29Z</time>
      </trkpt>
      <trkpt lat="42.49435" lon="2.00692">
        <ele>1607</ele>
        <time>2017-08-30T13:27:05Z</time>
      </trkpt>
      <trkpt lat="42.49436" lon="2.007">
        <ele>1607</ele>
        <time>2017-08-30T13:27:42Z</time>
      </trkpt>
      <trkpt lat="42.49435" lon="2.00706">
        <ele>1608</ele>
        <time>2017-08-30T13:27:52Z</time>
      </trkpt>
      <trkpt lat="42.49434" lon="2.00712">
        <ele>1609</ele>
        <time>2017-08-30T13:27:59Z</time>
      </trkpt>
      <trkpt lat="42.49429" lon="2.00732">
        <ele>1614</ele>
        <time>2017-08-30T13:28:20Z</time>
      </trkpt>
      <trkpt lat="42.49424" lon="2.00743">
        <ele>1619</ele>
        <time>2017-08-30T13:28:35Z</time>
      </trkpt>
      <trkpt lat="42.49423" lon="2.00749">
        <ele>1621</ele>
        <time>2017-08-30T13:28:40Z</time>
      </trkpt>
      <trkpt lat="42.49422" lon="2.00756">
        <ele>1623</ele>
        <time>2017-08-30T13:28:48Z</time>
      </trkpt>
      <trkpt lat="42.49421" lon="2.00762">
        <ele>1623</ele>
        <time>2017-08-30T13:28:56Z</time>
      </trkpt>
      <trkpt lat="42.49417" lon="2.00765">
        <ele>1623</ele>
        <time>2017-08-30T13:29:03Z</time>
      </trkpt>
      <trkpt lat="42.49415" lon="2.00771">
        <ele>1630</ele>
        <time>2017-08-30T13:29:09Z</time>
      </trkpt>
      <trkpt lat="42.49412" lon="2.00777">
        <ele>1630</ele>
        <time>2017-08-30T13:29:16Z</time>
      </trkpt>
      <trkpt lat="42.49402" lon="2.0079">
        <ele>1631</ele>
        <time>2017-08-30T13:29:36Z</time>
      </trkpt>
      <trkpt lat="42.49397" lon="2.00787">
        <ele>1632</ele>
        <time>2017-08-30T13:31:35Z</time>
      </trkpt>
      <trkpt lat="42.49383" lon="2.00777">
        <ele>1633</ele>
        <time>2017-08-30T13:32:05Z</time>
      </trkpt>
      <trkpt lat="42.49376" lon="2.00775">
        <ele>1634</ele>
        <time>2017-08-30T13:32:19Z</time>
      </trkpt>
      <trkpt lat="42.49369" lon="2.00769">
        <ele>1635</ele>
        <time>2017-08-30T13:32:41Z</time>
      </trkpt>
      <trkpt lat="42.4936" lon="2.00764">
        <ele>1637</ele>
        <time>2017-08-30T13:32:56Z</time>
      </trkpt>
      <trkpt lat="42.49352" lon="2.00757">
        <ele>1639</ele>
        <time>2017-08-30T13:33:11Z</time>
      </trkpt>
      <trkpt lat="42.49341" lon="2.00751">
        <ele>1642</ele>
        <time>2017-08-30T13:33:33Z</time>
      </trkpt>
      <trkpt lat="42.49331" lon="2.00744">
        <ele>1646</ele>
        <time>2017-08-30T13:33:57Z</time>
      </trkpt>
      <trkpt lat="42.49327" lon="2.00742">
        <ele>1646</ele>
        <time>2017-08-30T13:34:16Z</time>
      </trkpt>
      <trkpt lat="42.49312" lon="2.00733">
        <ele>1646</ele>
        <time>2017-08-30T13:34:49Z</time>
      </trkpt>
      <trkpt lat="42.49307" lon="2.00731">
        <ele>1646</ele>
        <time>2017-08-30T13:34:56Z</time>
      </trkpt>
      <trkpt lat="42.49296" lon="2.0073">
        <ele>1646</ele>
        <time>2017-08-30T13:35:23Z</time>
      </trkpt>
      <trkpt lat="42.49285" lon="2.00733">
        <ele>1647</ele>
        <time>2017-08-30T13:35:54Z</time>
      </trkpt>
      <trkpt lat="42.49262" lon="2.00745">
        <ele>1651</ele>
        <time>2017-08-30T13:36:25Z</time>
      </trkpt>
      <trkpt lat="42.49259" lon="2.00752">
        <ele>1653</ele>
        <time>2017-08-30T13:38:03Z</time>
      </trkpt>
      <trkpt lat="42.49252" lon="2.00795">
        <ele>1649</ele>
        <time>2017-08-30T13:38:57Z</time>
      </trkpt>
      <trkpt lat="42.49244" lon="2.00792">
        <ele>1650</ele>
        <time>2017-08-30T13:40:33Z</time>
      </trkpt>
      <trkpt lat="42.4924" lon="2.00788">
        <ele>1650</ele>
        <time>2017-08-30T13:40:38Z</time>
      </trkpt>
      <trkpt lat="42.49224" lon="2.00776">
        <ele>1650</ele>
        <time>2017-08-30T13:40:53Z</time>
      </trkpt>
      <trkpt lat="42.49217" lon="2.00766">
        <ele>1650</ele>
        <time>2017-08-30T13:41:03Z</time>
      </trkpt>
      <trkpt lat="42.49214" lon="2.0076">
        <ele>1650</ele>
        <time>2017-08-30T13:41:10Z</time>
      </trkpt>
      <trkpt lat="42.49211" lon="2.0074">
        <ele>1647</ele>
        <time>2017-08-30T13:41:26Z</time>
      </trkpt>
      <trkpt lat="42.49209" lon="2.00733">
        <ele>1646</ele>
        <time>2017-08-30T13:41:31Z</time>
      </trkpt>
      <trkpt lat="42.49213" lon="2.00713">
        <ele>1645</ele>
        <time>2017-08-30T13:41:46Z</time>
      </trkpt>
      <trkpt lat="42.49234" lon="2.00683">
        <ele>1644</ele>
        <time>2017-08-30T13:42:15Z</time>
      </trkpt>
      <trkpt lat="42.49242" lon="2.00676">
        <ele>1644</ele>
        <time>2017-08-30T13:42:24Z</time>
      </trkpt>
      <trkpt lat="42.49246" lon="2.00671">
        <ele>1643</ele>
        <time>2017-08-30T13:42:28Z</time>
      </trkpt>
      <trkpt lat="42.4926" lon="2.00663">
        <ele>1636</ele>
        <time>2017-08-30T13:42:44Z</time>
      </trkpt>
      <trkpt lat="42.49265" lon="2.00662">
        <ele>1634</ele>
        <time>2017-08-30T13:42:49Z</time>
      </trkpt>
      <trkpt lat="42.49279" lon="2.00657">
        <ele>1630</ele>
        <time>2017-08-30T13:43:04Z</time>
      </trkpt>
      <trkpt lat="42.49288" lon="2.00659">
        <ele>1629</ele>
        <time>2017-08-30T13:43:14Z</time>
      </trkpt>
      <trkpt lat="42.49291" lon="2.00653">
        <ele>1628</ele>
        <time>2017-08-30T13:43:20Z</time>
      </trkpt>
      <trkpt lat="42.49279" lon="2.00645">
        <ele>1628</ele>
        <time>2017-08-30T13:43:43Z</time>
      </trkpt>
      <trkpt lat="42.49262" lon="2.00642">
        <ele>1629</ele>
        <time>2017-08-30T13:44:17Z</time>
      </trkpt>
      <trkpt lat="42.49226" lon="2.00641">
        <ele>1628</ele>
        <time>2017-08-30T13:44:51Z</time>
      </trkpt>
      <trkpt lat="42.49192" lon="2.0064">
        <ele>1626</ele>
        <time>2017-08-30T13:45:24Z</time>
      </trkpt>
      <trkpt lat="42.49157" lon="2.00636">
        <ele>1620</ele>
        <time>2017-08-30T13:45:56Z</time>
      </trkpt>
      <trkpt lat="42.49121" lon="2.00636">
        <ele>1617</ele>
        <time>2017-08-30T13:46:28Z</time>
      </trkpt>
      <trkpt lat="42.49105" lon="2.00635">
        <ele>1616</ele>
        <time>2017-08-30T13:46:43Z</time>
      </trkpt>
      <trkpt lat="42.49099" lon="2.00635">
        <ele>1616</ele>
        <time>2017-08-30T13:46:48Z</time>
      </trkpt>
      <trkpt lat="42.49089" lon="2.00635">
        <ele>1616</ele>
        <time>2017-08-30T13:46:57Z</time>
      </trkpt>
      <trkpt lat="42.4908" lon="2.00639">
        <ele>1611</ele>
        <time>2017-08-30T13:47:05Z</time>
      </trkpt>
      <trkpt lat="42.49077" lon="2.00643">
        <ele>1612</ele>
        <time>2017-08-30T13:47:09Z</time>
      </trkpt>
      <trkpt lat="42.49074" lon="2.00648">
        <ele>1613</ele>
        <time>2017-08-30T13:47:13Z</time>
      </trkpt>
      <trkpt lat="42.4907" lon="2.00653">
        <ele>1613</ele>
        <time>2017-08-30T13:47:18Z</time>
      </trkpt>
      <trkpt lat="42.49067" lon="2.00658">
        <ele>1614</ele>
        <time>2017-08-30T13:47:23Z</time>
      </trkpt>
      <trkpt lat="42.49065" lon="2.00665">
        <ele>1614</ele>
        <time>2017-08-30T13:47:28Z</time>
      </trkpt>
      <trkpt lat="42.49061" lon="2.00678">
        <ele>1617</ele>
        <time>2017-08-30T13:47:38Z</time>
      </trkpt>
      <trkpt lat="42.49055" lon="2.0072">
        <ele>1616</ele>
        <time>2017-08-30T13:48:08Z</time>
      </trkpt>
      <trkpt lat="42.49055" lon="2.0074">
        <ele>1616</ele>
        <time>2017-08-30T13:48:21Z</time>
      </trkpt>
      <trkpt lat="42.49059" lon="2.00767">
        <ele>1614</ele>
        <time>2017-08-30T13:48:40Z</time>
      </trkpt>
      <trkpt lat="42.49055" lon="2.00772">
        <ele>1613</ele>
        <time>2017-08-30T13:48:45Z</time>
      </trkpt>
      <trkpt lat="42.49049" lon="2.00772">
        <ele>1612</ele>
        <time>2017-08-30T13:48:50Z</time>
      </trkpt>
      <trkpt lat="42.49041" lon="2.00764">
        <ele>1611</ele>
        <time>2017-08-30T13:49:00Z</time>
      </trkpt>
      <trkpt lat="42.49039" lon="2.00759">
        <ele>1610</ele>
        <time>2017-08-30T13:49:05Z</time>
      </trkpt>
      <trkpt lat="42.4902" lon="2.00726">
        <ele>1611</ele>
        <time>2017-08-30T13:49:39Z</time>
      </trkpt>
      <trkpt lat="42.49006" lon="2.00698">
        <ele>1611</ele>
        <time>2017-08-30T13:50:03Z</time>
      </trkpt>
      <trkpt lat="42.49004" lon="2.00691">
        <ele>1610</ele>
        <time>2017-08-30T13:50:08Z</time>
      </trkpt>
      <trkpt lat="42.49001" lon="2.00685">
        <ele>1610</ele>
        <time>2017-08-30T13:50:13Z</time>
      </trkpt>
      <trkpt lat="42.49" lon="2.00679">
        <ele>1602</ele>
        <time>2017-08-30T13:50:17Z</time>
      </trkpt>
      <trkpt lat="42.48998" lon="2.00672">
        <ele>1604</ele>
        <time>2017-08-30T13:50:22Z</time>
      </trkpt>
      <trkpt lat="42.48989" lon="2.0064">
        <ele>1596</ele>
        <time>2017-08-30T13:50:45Z</time>
      </trkpt>
      <trkpt lat="42.48988" lon="2.00634">
        <ele>1595</ele>
        <time>2017-08-30T13:50:49Z</time>
      </trkpt>
      <trkpt lat="42.48995" lon="2.00602">
        <ele>1592</ele>
        <time>2017-08-30T13:51:10Z</time>
      </trkpt>
      <trkpt lat="42.49" lon="2.00588">
        <ele>1595</ele>
        <time>2017-08-30T13:51:18Z</time>
      </trkpt>
      <trkpt lat="42.49004" lon="2.00583">
        <ele>1591</ele>
        <time>2017-08-30T13:51:23Z</time>
      </trkpt>
      <trkpt lat="42.49008" lon="2.00579">
        <ele>1589</ele>
        <time>2017-08-30T13:51:50Z</time>
      </trkpt>
      <trkpt lat="42.49014" lon="2.00568">
        <ele>1586</ele>
        <time>2017-08-30T13:52:00Z</time>
      </trkpt>
      <trkpt lat="42.49012" lon="2.00562">
        <ele>1584</ele>
        <time>2017-08-30T13:52:06Z</time>
      </trkpt>
      <trkpt lat="42.49007" lon="2.00563">
        <ele>1585</ele>
        <time>2017-08-30T13:52:10Z</time>
      </trkpt>
      <trkpt lat="42.49003" lon="2.00566">
        <ele>1586</ele>
        <time>2017-08-30T13:52:14Z</time>
      </trkpt>
      <trkpt lat="42.48999" lon="2.0057">
        <ele>1583</ele>
        <time>2017-08-30T13:52:19Z</time>
      </trkpt>
      <trkpt lat="42.48965" lon="2.00596">
        <ele>1590</ele>
        <time>2017-08-30T13:52:54Z</time>
      </trkpt>
      <trkpt lat="42.48934" lon="2.00623">
        <ele>1588</ele>
        <time>2017-08-30T13:53:25Z</time>
      </trkpt>
      <trkpt lat="42.48913" lon="2.00641">
        <ele>1581</ele>
        <time>2017-08-30T13:53:46Z</time>
      </trkpt>
      <trkpt lat="42.48908" lon="2.00643">
        <ele>1581</ele>
        <time>2017-08-30T13:53:50Z</time>
      </trkpt>
      <trkpt lat="42.48903" lon="2.00644">
        <ele>1581</ele>
        <time>2017-08-30T13:53:55Z</time>
      </trkpt>
      <trkpt lat="42.48888" lon="2.00641">
        <ele>1579</ele>
        <time>2017-08-30T13:54:08Z</time>
      </trkpt>
      <trkpt lat="42.48884" lon="2.00638">
        <ele>1579</ele>
        <time>2017-08-30T13:54:12Z</time>
      </trkpt>
      <trkpt lat="42.48875" lon="2.00634">
        <ele>1578</ele>
        <time>2017-08-30T13:54:20Z</time>
      </trkpt>
      <trkpt lat="42.48867" lon="2.00626">
        <ele>1577</ele>
        <time>2017-08-30T13:54:39Z</time>
      </trkpt>
      <trkpt lat="42.48863" lon="2.00621">
        <ele>1577</ele>
        <time>2017-08-30T13:54:44Z</time>
      </trkpt>
      <trkpt lat="42.48849" lon="2.00615">
        <ele>1575</ele>
        <time>2017-08-30T13:54:58Z</time>
      </trkpt>
      <trkpt lat="42.48844" lon="2.00617">
        <ele>1575</ele>
        <time>2017-08-30T13:55:03Z</time>
      </trkpt>
      <trkpt lat="42.48837" lon="2.00625">
        <ele>1576</ele>
        <time>2017-08-30T13:55:11Z</time>
      </trkpt>
      <trkpt lat="42.4882" lon="2.00658">
        <ele>1572</ele>
        <time>2017-08-30T13:55:39Z</time>
      </trkpt>
      <trkpt lat="42.48819" lon="2.00665">
        <ele>1572</ele>
        <time>2017-08-30T13:55:43Z</time>
      </trkpt>
      <trkpt lat="42.48809" lon="2.00681">
        <ele>1570</ele>
        <time>2017-08-30T13:55:58Z</time>
      </trkpt>
      <trkpt lat="42.48804" lon="2.00682">
        <ele>1569</ele>
        <time>2017-08-30T13:56:03Z</time>
      </trkpt>
      <trkpt lat="42.48801" lon="2.00678">
        <ele>1569</ele>
        <time>2017-08-30T13:56:07Z</time>
      </trkpt>
      <trkpt lat="42.48791" lon="2.00631">
        <ele>1567</ele>
        <time>2017-08-30T13:56:39Z</time>
      </trkpt>
      <trkpt lat="42.48786" lon="2.00607">
        <ele>1566</ele>
        <time>2017-08-30T13:57:10Z</time>
      </trkpt>
      <trkpt lat="42.48785" lon="2.00601">
        <ele>1566</ele>
        <time>2017-08-30T13:57:16Z</time>
      </trkpt>
      <trkpt lat="42.48784" lon="2.00594">
        <ele>1566</ele>
        <time>2017-08-30T13:57:25Z</time>
      </trkpt>
      <trkpt lat="42.48784" lon="2.00576">
        <ele>1557</ele>
        <time>2017-08-30T13:57:49Z</time>
      </trkpt>
      <trkpt lat="42.48791" lon="2.00561">
        <ele>1556</ele>
        <time>2017-08-30T13:58:16Z</time>
      </trkpt>
      <trkpt lat="42.4879" lon="2.00554">
        <ele>1555</ele>
        <time>2017-08-30T13:58:21Z</time>
      </trkpt>
      <trkpt lat="42.48788" lon="2.00548">
        <ele>1554</ele>
        <time>2017-08-30T13:58:26Z</time>
      </trkpt>
      <trkpt lat="42.48784" lon="2.00551">
        <ele>1554</ele>
        <time>2017-08-30T13:58:31Z</time>
      </trkpt>
      <trkpt lat="42.4876" lon="2.00562">
        <ele>1556</ele>
        <time>2017-08-30T13:58:54Z</time>
      </trkpt>
      <trkpt lat="42.48751" lon="2.0057">
        <ele>1557</ele>
        <time>2017-08-30T13:59:04Z</time>
      </trkpt>
      <trkpt lat="42.4873" lon="2.00609">
        <ele>1554</ele>
        <time>2017-08-30T13:59:36Z</time>
      </trkpt>
      <trkpt lat="42.48721" lon="2.00626">
        <ele>1553</ele>
        <time>2017-08-30T13:59:50Z</time>
      </trkpt>
      <trkpt lat="42.48709" lon="2.00671">
        <ele>1551</ele>
        <time>2017-08-30T14:00:23Z</time>
      </trkpt>
      <trkpt lat="42.48706" lon="2.00683">
        <ele>1551</ele>
        <time>2017-08-30T14:00:30Z</time>
      </trkpt>
      <trkpt lat="42.48704" lon="2.00689">
        <ele>1550</ele>
        <time>2017-08-30T14:00:34Z</time>
      </trkpt>
      <trkpt lat="42.48699" lon="2.00688">
        <ele>1550</ele>
        <time>2017-08-30T14:00:39Z</time>
      </trkpt>
      <trkpt lat="42.48697" lon="2.00682">
        <ele>1549</ele>
        <time>2017-08-30T14:00:43Z</time>
      </trkpt>
      <trkpt lat="42.48694" lon="2.00668">
        <ele>1549</ele>
        <time>2017-08-30T14:00:52Z</time>
      </trkpt>
      <trkpt lat="42.48692" lon="2.00661">
        <ele>1549</ele>
        <time>2017-08-30T14:00:57Z</time>
      </trkpt>
      <trkpt lat="42.48677" lon="2.00618">
        <ele>1549</ele>
        <time>2017-08-30T14:01:27Z</time>
      </trkpt>
      <trkpt lat="42.48674" lon="2.00613">
        <ele>1548</ele>
        <time>2017-08-30T14:01:31Z</time>
      </trkpt>
      <trkpt lat="42.48668" lon="2.00586">
        <ele>1543</ele>
        <time>2017-08-30T14:01:49Z</time>
      </trkpt>
      <trkpt lat="42.48656" lon="2.00542">
        <ele>1533</ele>
        <time>2017-08-30T14:02:21Z</time>
      </trkpt>
      <trkpt lat="42.48646" lon="2.00503">
        <ele>1533</ele>
        <time>2017-08-30T14:02:50Z</time>
      </trkpt>
      <trkpt lat="42.48641" lon="2.00478">
        <ele>1524</ele>
        <time>2017-08-30T14:03:07Z</time>
      </trkpt>
      <trkpt lat="42.48641" lon="2.00471">
        <ele>1523</ele>
        <time>2017-08-30T14:03:11Z</time>
      </trkpt>
      <trkpt lat="42.48642" lon="2.00465">
        <ele>1522</ele>
        <time>2017-08-30T14:03:16Z</time>
      </trkpt>
      <trkpt lat="42.48645" lon="2.00458">
        <ele>1521</ele>
        <time>2017-08-30T14:03:20Z</time>
      </trkpt>
      <trkpt lat="42.48653" lon="2.00449">
        <ele>1520</ele>
        <time>2017-08-30T14:03:31Z</time>
      </trkpt>
      <trkpt lat="42.48655" lon="2.00443">
        <ele>1519</ele>
        <time>2017-08-30T14:03:35Z</time>
      </trkpt>
      <trkpt lat="42.48653" lon="2.00437">
        <ele>1518</ele>
        <time>2017-08-30T14:03:40Z</time>
      </trkpt>
      <trkpt lat="42.4865" lon="2.00432">
        <ele>1517</ele>
        <time>2017-08-30T14:03:45Z</time>
      </trkpt>
      <trkpt lat="42.48643" lon="2.00432">
        <ele>1518</ele>
        <time>2017-08-30T14:05:19Z</time>
      </trkpt>
      <trkpt lat="42.48634" lon="2.00436">
        <ele>1518</ele>
        <time>2017-08-30T14:05:32Z</time>
      </trkpt>
      <trkpt lat="42.48629" lon="2.00437">
        <ele>1518</ele>
        <time>2017-08-30T14:05:37Z</time>
      </trkpt>
      <trkpt lat="42.48624" lon="2.00437">
        <ele>1518</ele>
        <time>2017-08-30T14:05:42Z</time>
      </trkpt>
      <trkpt lat="42.48605" lon="2.00435">
        <ele>1517</ele>
        <time>2017-08-30T14:06:01Z</time>
      </trkpt>
      <trkpt lat="42.48594" lon="2.00432">
        <ele>1516</ele>
        <time>2017-08-30T14:06:11Z</time>
      </trkpt>
      <trkpt lat="42.48571" lon="2.00432">
        <ele>1510</ele>
        <time>2017-08-30T14:06:42Z</time>
      </trkpt>
      <trkpt lat="42.48567" lon="2.00429">
        <ele>1510</ele>
        <time>2017-08-30T14:06:48Z</time>
      </trkpt>
      <trkpt lat="42.4856" lon="2.00428">
        <ele>1510</ele>
        <time>2017-08-30T14:07:14Z</time>
      </trkpt>
      <trkpt lat="42.48554" lon="2.00427">
        <ele>1509</ele>
        <time>2017-08-30T14:07:19Z</time>
      </trkpt>
      <trkpt lat="42.48549" lon="2.00427">
        <ele>1509</ele>
        <time>2017-08-30T14:07:24Z</time>
      </trkpt>
      <trkpt lat="42.48544" lon="2.00426">
        <ele>1509</ele>
        <time>2017-08-30T14:07:30Z</time>
      </trkpt>
      <trkpt lat="42.48534" lon="2.00427">
        <ele>1508</ele>
        <time>2017-08-30T14:07:39Z</time>
      </trkpt>
      <trkpt lat="42.48529" lon="2.00426">
        <ele>1507</ele>
        <time>2017-08-30T14:07:45Z</time>
      </trkpt>
      <trkpt lat="42.48525" lon="2.00428">
        <ele>1507</ele>
        <time>2017-08-30T14:07:50Z</time>
      </trkpt>
      <trkpt lat="42.4852" lon="2.00428">
        <ele>1507</ele>
        <time>2017-08-30T14:07:54Z</time>
      </trkpt>
      <trkpt lat="42.48515" lon="2.00424">
        <ele>1506</ele>
        <time>2017-08-30T14:07:59Z</time>
      </trkpt>
      <trkpt lat="42.48507" lon="2.00415">
        <ele>1502</ele>
        <time>2017-08-30T14:08:09Z</time>
      </trkpt>
      <trkpt lat="42.48484" lon="2.004">
        <ele>1501</ele>
        <time>2017-08-30T14:08:29Z</time>
      </trkpt>
      <trkpt lat="42.48479" lon="2.00398">
        <ele>1500</ele>
        <time>2017-08-30T14:08:33Z</time>
      </trkpt>
      <trkpt lat="42.48456" lon="2.00385">
        <ele>1499</ele>
        <time>2017-08-30T14:08:55Z</time>
      </trkpt>
      <trkpt lat="42.48452" lon="2.00375">
        <ele>1499</ele>
        <time>2017-08-30T14:09:36Z</time>
      </trkpt>
      <trkpt lat="42.4845" lon="2.00368">
        <ele>1499</ele>
        <time>2017-08-30T14:09:41Z</time>
      </trkpt>
      <trkpt lat="42.48448" lon="2.00362">
        <ele>1499</ele>
        <time>2017-08-30T14:09:46Z</time>
      </trkpt>
      <trkpt lat="42.48444" lon="2.00342">
        <ele>1500</ele>
        <time>2017-08-30T14:10:01Z</time>
      </trkpt>
      <trkpt lat="42.48438" lon="2.00329">
        <ele>1497</ele>
        <time>2017-08-30T14:10:18Z</time>
      </trkpt>
      <trkpt lat="42.48436" lon="2.00315">
        <ele>1496</ele>
        <time>2017-08-30T14:10:28Z</time>
      </trkpt>
      <trkpt lat="42.48432" lon="2.00309">
        <ele>1496</ele>
        <time>2017-08-30T14:10:33Z</time>
      </trkpt>
      <trkpt lat="42.4838" lon="2.00255">
        <ele>1510</ele>
      </trkpt>
      <trkpt lat="42.48234" lon="2.00048">
        <ele>1541</ele>
      </trkpt>
      <trkpt lat="42.48151" lon="1.99777">
        <ele>1529</ele>
      </trkpt>
      <trkpt lat="42.48142" lon="1.99628">
        <ele>1515</ele>
      </trkpt>
      <trkpt lat="42.48001" lon="1.99499">
        <ele>1487</ele>
      </trkpt>
      <trkpt lat="42.47991" lon="1.99464">
        <ele>1475</ele>
      </trkpt>
      <trkpt lat="42.47944" lon="1.99472">
        <ele>1473</ele>
      </trkpt>
      <trkpt lat="42.47934" lon="1.99416">
        <ele>1452</ele>
      </trkpt>
      <trkpt lat="42.47865" lon="1.99409">
        <ele>1440</ele>
      </trkpt>
      <trkpt lat="42.47828" lon="1.99377">
        <ele>1425</ele>
        <time>2017-08-30T14:34:14Z</time>
      </trkpt>
      <trkpt lat="42.47823" lon="1.99376">
        <ele>1425</ele>
        <time>2017-08-30T14:34:43Z</time>
      </trkpt>
      <trkpt lat="42.47814" lon="1.99372">
        <ele>1424</ele>
        <time>2017-08-30T14:35:04Z</time>
      </trkpt>
      <trkpt lat="42.47808" lon="1.99364">
        <ele>1422</ele>
        <time>2017-08-30T14:35:50Z</time>
      </trkpt>
      <trkpt lat="42.47805" lon="1.99352">
        <ele>1421</ele>
        <time>2017-08-30T14:36:05Z</time>
      </trkpt>
      <trkpt lat="42.47807" lon="1.99346">
        <ele>1420</ele>
        <time>2017-08-30T14:36:12Z</time>
      </trkpt>
      <trkpt lat="42.47823" lon="1.99313">
        <ele>1406</ele>
        <time>2017-08-30T14:36:45Z</time>
      </trkpt>
      <trkpt lat="42.47824" lon="1.99307">
        <ele>1404</ele>
        <time>2017-08-30T14:36:54Z</time>
      </trkpt>
      <trkpt lat="42.47828" lon="1.99298">
        <ele>1402</ele>
        <time>2017-08-30T14:37:31Z</time>
      </trkpt>
      <trkpt lat="42.47836" lon="1.99273">
        <ele>1401</ele>
        <time>2017-08-30T14:37:52Z</time>
      </trkpt>
      <trkpt lat="42.47832" lon="1.99278">
        <ele>1397</ele>
        <time>2017-08-30T14:39:33Z</time>
      </trkpt>
      <trkpt lat="42.4783" lon="1.99272">
        <ele>1395</ele>
        <time>2017-08-30T14:40:39Z</time>
      </trkpt>
      <trkpt lat="42.47825" lon="1.99271">
        <ele>1395</ele>
        <time>2017-08-30T14:40:59Z</time>
      </trkpt>
      <trkpt lat="42.47819" lon="1.99266">
        <ele>1394</ele>
        <time>2017-08-30T14:41:14Z</time>
      </trkpt>
      <trkpt lat="42.47815" lon="1.99265">
        <ele>1394</ele>
        <time>2017-08-30T14:41:19Z</time>
      </trkpt>
      <trkpt lat="42.4781" lon="1.99266">
        <ele>1395</ele>
        <time>2017-08-30T14:41:23Z</time>
      </trkpt>
      <trkpt lat="42.47806" lon="1.99268">
        <ele>1395</ele>
        <time>2017-08-30T14:41:31Z</time>
      </trkpt>
      <trkpt lat="42.47792" lon="1.99278">
        <ele>1396</ele>
        <time>2017-08-30T14:41:44Z</time>
      </trkpt>
      <trkpt lat="42.47787" lon="1.9928">
        <ele>1396</ele>
        <time>2017-08-30T14:41:48Z</time>
      </trkpt>
      <trkpt lat="42.47782" lon="1.99279">
        <ele>1395</ele>
        <time>2017-08-30T14:41:52Z</time>
      </trkpt>
      <trkpt lat="42.47778" lon="1.99277">
        <ele>1394</ele>
        <time>2017-08-30T14:41:57Z</time>
      </trkpt>
      <trkpt lat="42.47773" lon="1.99275">
        <ele>1393</ele>
        <time>2017-08-30T14:42:02Z</time>
      </trkpt>
      <trkpt lat="42.47767" lon="1.99278">
        <ele>1393</ele>
        <time>2017-08-30T14:42:07Z</time>
      </trkpt>
      <trkpt lat="42.47762" lon="1.99278">
        <ele>1393</ele>
        <time>2017-08-30T14:42:12Z</time>
      </trkpt>
      <trkpt lat="42.47758" lon="1.99275">
        <ele>1392</ele>
        <time>2017-08-30T14:42:16Z</time>
      </trkpt>
      <trkpt lat="42.47753" lon="1.99273">
        <ele>1391</ele>
        <time>2017-08-30T14:42:20Z</time>
      </trkpt>
      <trkpt lat="42.47739" lon="1.99279">
        <ele>1384</ele>
        <time>2017-08-30T14:42:33Z</time>
      </trkpt>
      <trkpt lat="42.47734" lon="1.9928">
        <ele>1384</ele>
        <time>2017-08-30T14:42:38Z</time>
      </trkpt>
      <trkpt lat="42.47719" lon="1.99278">
        <ele>1383</ele>
        <time>2017-08-30T14:42:54Z</time>
      </trkpt>
      <trkpt lat="42.4769" lon="1.99287">
        <ele>1382</ele>
        <time>2017-08-30T14:43:23Z</time>
      </trkpt>
      <trkpt lat="42.47681" lon="1.99293">
        <ele>1382</ele>
        <time>2017-08-30T14:43:31Z</time>
      </trkpt>
      <trkpt lat="42.47659" lon="1.9931">
        <ele>1373</ele>
        <time>2017-08-30T14:43:55Z</time>
      </trkpt>
      <trkpt lat="42.47635" lon="1.99335">
        <ele>1382</ele>
        <time>2017-08-30T14:44:40Z</time>
      </trkpt>
      <trkpt lat="42.47624" lon="1.99352">
        <ele>1381</ele>
        <time>2017-08-30T14:44:55Z</time>
      </trkpt>
      <trkpt lat="42.47618" lon="1.99362">
        <ele>1381</ele>
        <time>2017-08-30T14:45:04Z</time>
      </trkpt>
      <trkpt lat="42.47605" lon="1.99389">
        <ele>1381</ele>
        <time>2017-08-30T14:45:34Z</time>
      </trkpt>
      <trkpt lat="42.4759" lon="1.99419">
        <ele>1383</ele>
        <time>2017-08-30T14:46:00Z</time>
      </trkpt>
      <trkpt lat="42.47571" lon="1.99451">
        <ele>1375</ele>
        <time>2017-08-30T14:46:27Z</time>
      </trkpt>
      <trkpt lat="42.47565" lon="1.99463">
        <ele>1375</ele>
        <time>2017-08-30T14:46:37Z</time>
      </trkpt>
      <trkpt lat="42.47562" lon="1.99468">
        <ele>1376</ele>
        <time>2017-08-30T14:46:41Z</time>
      </trkpt>
      <trkpt lat="42.47561" lon="1.99474">
        <ele>1376</ele>
        <time>2017-08-30T14:46:45Z</time>
      </trkpt>
      <trkpt lat="42.47551" lon="1.99498">
        <ele>1377</ele>
        <time>2017-08-30T14:47:05Z</time>
      </trkpt>
      <trkpt lat="42.47546" lon="1.99508">
        <ele>1384</ele>
        <time>2017-08-30T14:47:16Z</time>
      </trkpt>
      <trkpt lat="42.47543" lon="1.99514">
        <ele>1384</ele>
        <time>2017-08-30T14:47:21Z</time>
      </trkpt>
      <trkpt lat="42.47541" lon="1.9952">
        <ele>1384</ele>
        <time>2017-08-30T14:47:26Z</time>
      </trkpt>
      <trkpt lat="42.47538" lon="1.99532">
        <ele>1384</ele>
        <time>2017-08-30T14:47:37Z</time>
      </trkpt>
      <trkpt lat="42.47535" lon="1.99538">
        <ele>1384</ele>
        <time>2017-08-30T14:47:42Z</time>
      </trkpt>
      <trkpt lat="42.47527" lon="1.99556">
        <ele>1384</ele>
        <time>2017-08-30T14:47:56Z</time>
      </trkpt>
      <trkpt lat="42.47524" lon="1.99562">
        <ele>1384</ele>
        <time>2017-08-30T14:48:01Z</time>
      </trkpt>
      <trkpt lat="42.47508" lon="1.99599">
        <ele>1387</ele>
        <time>2017-08-30T14:48:31Z</time>
      </trkpt>
      <trkpt lat="42.47496" lon="1.99637">
        <ele>1371</ele>
        <time>2017-08-30T14:49:03Z</time>
      </trkpt>
      <trkpt lat="42.47495" lon="1.99643">
        <ele>1372</ele>
        <time>2017-08-30T14:49:08Z</time>
      </trkpt>
      <trkpt lat="42.47495" lon="1.9965">
        <ele>1374</ele>
        <time>2017-08-30T14:49:15Z</time>
      </trkpt>
      <trkpt lat="42.47492" lon="1.99655">
        <ele>1375</ele>
        <time>2017-08-30T14:49:30Z</time>
      </trkpt>
      <trkpt lat="42.4749" lon="1.99667">
        <ele>1378</ele>
        <time>2017-08-30T14:49:39Z</time>
      </trkpt>
      <trkpt lat="42.47487" lon="1.99673">
        <ele>1376</ele>
        <time>2017-08-30T14:49:43Z</time>
      </trkpt>
      <trkpt lat="42.47484" lon="1.99677">
        <ele>1375</ele>
        <time>2017-08-30T14:49:48Z</time>
      </trkpt>
      <trkpt lat="42.47478" lon="1.99677">
        <ele>1373</ele>
        <time>2017-08-30T14:49:53Z</time>
      </trkpt>
      <trkpt lat="42.47477" lon="1.99659">
        <ele>1371</ele>
        <time>2017-08-30T14:50:17Z</time>
      </trkpt>
      <trkpt lat="42.47472" lon="1.99625">
        <ele>1367</ele>
        <time>2017-08-30T14:50:41Z</time>
      </trkpt>
      <trkpt lat="42.47474" lon="1.99576">
        <ele>1363</ele>
        <time>2017-08-30T14:51:13Z</time>
      </trkpt>
      <trkpt lat="42.47475" lon="1.9957">
        <ele>1363</ele>
        <time>2017-08-30T14:51:17Z</time>
      </trkpt>
      <trkpt lat="42.47487" lon="1.99525">
        <ele>1360</ele>
        <time>2017-08-30T14:51:50Z</time>
      </trkpt>
      <trkpt lat="42.47499" lon="1.99486">
        <ele>1356</ele>
        <time>2017-08-30T14:52:21Z</time>
      </trkpt>
      <trkpt lat="42.47504" lon="1.99466">
        <ele>1367</ele>
        <time>2017-08-30T14:52:38Z</time>
      </trkpt>
      <trkpt lat="42.47518" lon="1.99422">
        <ele>1361</ele>
        <time>2017-08-30T14:53:12Z</time>
      </trkpt>
      <trkpt lat="42.47531" lon="1.99379">
        <ele>1354</ele>
        <time>2017-08-30T14:53:46Z</time>
      </trkpt>
      <trkpt lat="42.47537" lon="1.99369">
        <ele>1354</ele>
        <time>2017-08-30T14:53:56Z</time>
      </trkpt>
      <trkpt lat="42.4755" lon="1.99324">
        <ele>1345</ele>
        <time>2017-08-30T14:54:30Z</time>
      </trkpt>
      <trkpt lat="42.47557" lon="1.99298">
        <ele>1343</ele>
        <time>2017-08-30T14:54:50Z</time>
      </trkpt>
      <trkpt lat="42.4756" lon="1.99293">
        <ele>1343</ele>
        <time>2017-08-30T14:54:55Z</time>
      </trkpt>
      <trkpt lat="42.47561" lon="1.99286">
        <ele>1343</ele>
        <time>2017-08-30T14:55:00Z</time>
      </trkpt>
      <trkpt lat="42.47564" lon="1.99281">
        <ele>1342</ele>
        <time>2017-08-30T14:55:05Z</time>
      </trkpt>
      <trkpt lat="42.47577" lon="1.99243">
        <ele>1339</ele>
        <time>2017-08-30T14:55:35Z</time>
      </trkpt>
      <trkpt lat="42.47592" lon="1.99207">
        <ele>1343</ele>
        <time>2017-08-30T14:56:05Z</time>
      </trkpt>
      <trkpt lat="42.47603" lon="1.99185">
        <ele>1341</ele>
        <time>2017-08-30T14:56:24Z</time>
      </trkpt>
      <trkpt lat="42.47605" lon="1.99179">
        <ele>1341</ele>
        <time>2017-08-30T14:56:28Z</time>
      </trkpt>
      <trkpt lat="42.47621" lon="1.99156">
        <ele>1331</ele>
        <time>2017-08-30T14:56:48Z</time>
      </trkpt>
      <trkpt lat="42.47638" lon="1.99142">
        <ele>1331</ele>
        <time>2017-08-30T14:57:09Z</time>
      </trkpt>
      <trkpt lat="42.47634" lon="1.99138">
        <ele>1330</ele>
        <time>2017-08-30T14:57:14Z</time>
      </trkpt>
      <trkpt lat="42.47629" lon="1.99136">
        <ele>1330</ele>
        <time>2017-08-30T14:57:19Z</time>
      </trkpt>
      <trkpt lat="42.47624" lon="1.99139">
        <ele>1329</ele>
        <time>2017-08-30T14:57:26Z</time>
      </trkpt>
      <trkpt lat="42.4762" lon="1.99141">
        <ele>1329</ele>
        <time>2017-08-30T14:57:33Z</time>
      </trkpt>
      <trkpt lat="42.47607" lon="1.99151">
        <ele>1329</ele>
        <time>2017-08-30T14:57:51Z</time>
      </trkpt>
      <trkpt lat="42.47595" lon="1.99154">
        <ele>1329</ele>
        <time>2017-08-30T14:59:13Z</time>
      </trkpt>
      <trkpt lat="42.4759" lon="1.99156">
        <ele>1329</ele>
        <time>2017-08-30T14:59:19Z</time>
      </trkpt>
      <trkpt lat="42.47585" lon="1.99159">
        <ele>1329</ele>
        <time>2017-08-30T14:59:24Z</time>
      </trkpt>
      <trkpt lat="42.47574" lon="1.99165">
        <ele>1325</ele>
        <time>2017-08-30T14:59:40Z</time>
      </trkpt>
      <trkpt lat="42.47569" lon="1.99171">
        <ele>1328</ele>
        <time>2017-08-30T14:59:58Z</time>
      </trkpt>
      <trkpt lat="42.47561" lon="1.99179">
        <ele>1327</ele>
        <time>2017-08-30T15:00:09Z</time>
      </trkpt>
      <trkpt lat="42.47553" lon="1.99186">
        <ele>1326</ele>
        <time>2017-08-30T15:00:20Z</time>
      </trkpt>
      <trkpt lat="42.47548" lon="1.99187">
        <ele>1325</ele>
        <time>2017-08-30T15:00:25Z</time>
      </trkpt>
      <trkpt lat="42.47544" lon="1.99192">
        <ele>1325</ele>
        <time>2017-08-30T15:00:32Z</time>
      </trkpt>
      <trkpt lat="42.4754" lon="1.99195">
        <ele>1324</ele>
        <time>2017-08-30T15:00:38Z</time>
      </trkpt>
      <trkpt lat="42.47533" lon="1.99205">
        <ele>1324</ele>
        <time>2017-08-30T15:00:52Z</time>
      </trkpt>
      <trkpt lat="42.47528" lon="1.99206">
        <ele>1324</ele>
        <time>2017-08-30T15:00:59Z</time>
      </trkpt>
      <trkpt lat="42.47524" lon="1.99208">
        <ele>1323</ele>
        <time>2017-08-30T15:01:05Z</time>
      </trkpt>
      <trkpt lat="42.47522" lon="1.99214">
        <ele>1324</ele>
        <time>2017-08-30T15:01:10Z</time>
      </trkpt>
      <trkpt lat="42.47518" lon="1.99224">
        <ele>1324</ele>
        <time>2017-08-30T15:01:30Z</time>
      </trkpt>
      <trkpt lat="42.47516" lon="1.99229">
        <ele>1323</ele>
        <time>2017-08-30T15:01:36Z</time>
      </trkpt>
      <trkpt lat="42.47514" lon="1.99238">
        <ele>1323</ele>
        <time>2017-08-30T15:01:49Z</time>
      </trkpt>
      <trkpt lat="42.47501" lon="1.99259">
        <ele>1326</ele>
        <time>2017-08-30T15:02:07Z</time>
      </trkpt>
      <trkpt lat="42.47499" lon="1.99266">
        <ele>1319</ele>
        <time>2017-08-30T15:02:12Z</time>
      </trkpt>
      <trkpt lat="42.47495" lon="1.99271">
        <ele>1319</ele>
        <time>2017-08-30T15:02:17Z</time>
      </trkpt>
      <trkpt lat="42.47491" lon="1.99274">
        <ele>1319</ele>
        <time>2017-08-30T15:02:22Z</time>
      </trkpt>
      <trkpt lat="42.47487" lon="1.99278">
        <ele>1319</ele>
        <time>2017-08-30T15:02:27Z</time>
      </trkpt>
      <trkpt lat="42.47484" lon="1.99284">
        <ele>1319</ele>
        <time>2017-08-30T15:02:32Z</time>
      </trkpt>
      <trkpt lat="42.4748" lon="1.99288">
        <ele>1319</ele>
        <time>2017-08-30T15:02:36Z</time>
      </trkpt>
      <trkpt lat="42.47461" lon="1.99314">
        <ele>1319</ele>
        <time>2017-08-30T15:03:13Z</time>
      </trkpt>
      <trkpt lat="42.47457" lon="1.99317">
        <ele>1318</ele>
        <time>2017-08-30T15:03:18Z</time>
      </trkpt>
      <trkpt lat="42.47454" lon="1.99323">
        <ele>1318</ele>
        <time>2017-08-30T15:03:24Z</time>
      </trkpt>
      <trkpt lat="42.4745" lon="1.99326">
        <ele>1318</ele>
        <time>2017-08-30T15:03:28Z</time>
      </trkpt>
      <trkpt lat="42.47444" lon="1.99336">
        <ele>1324</ele>
        <time>2017-08-30T15:03:38Z</time>
      </trkpt>
      <trkpt lat="42.4744" lon="1.9934">
        <ele>1323</ele>
        <time>2017-08-30T15:03:43Z</time>
      </trkpt>
      <trkpt lat="42.47437" lon="1.99345">
        <ele>1323</ele>
        <time>2017-08-30T15:03:48Z</time>
      </trkpt>
      <trkpt lat="42.47428" lon="1.99369">
        <ele>1325</ele>
        <time>2017-08-30T15:04:08Z</time>
      </trkpt>
      <trkpt lat="42.47426" lon="1.99375">
        <ele>1326</ele>
        <time>2017-08-30T15:04:13Z</time>
      </trkpt>
      <trkpt lat="42.47421" lon="1.99393">
        <ele>1326</ele>
        <time>2017-08-30T15:04:29Z</time>
      </trkpt>
      <trkpt lat="42.47417" lon="1.994">
        <ele>1326</ele>
        <time>2017-08-30T15:04:43Z</time>
      </trkpt>
      <trkpt lat="42.47416" lon="1.99407">
        <ele>1318</ele>
        <time>2017-08-30T15:04:58Z</time>
      </trkpt>
      <trkpt lat="42.4741" lon="1.99414">
        <ele>1319</ele>
        <time>2017-08-30T15:05:28Z</time>
      </trkpt>
      <trkpt lat="42.47394" lon="1.99424">
        <ele>1319</ele>
        <time>2017-08-30T15:06:10Z</time>
      </trkpt>
      <trkpt lat="42.47381" lon="1.99432">
        <ele>1317</ele>
        <time>2017-08-30T15:06:27Z</time>
      </trkpt>
      <trkpt lat="42.47376" lon="1.99434">
        <ele>1317</ele>
        <time>2017-08-30T15:06:32Z</time>
      </trkpt>
      <trkpt lat="42.47371" lon="1.99436">
        <ele>1316</ele>
        <time>2017-08-30T15:06:37Z</time>
      </trkpt>
      <trkpt lat="42.47369" lon="1.99442">
        <ele>1316</ele>
        <time>2017-08-30T15:06:41Z</time>
      </trkpt>
      <trkpt lat="42.47356" lon="1.99451">
        <ele>1315</ele>
        <time>2017-08-30T15:06:55Z</time>
      </trkpt>
      <trkpt lat="42.47352" lon="1.99455">
        <ele>1315</ele>
        <time>2017-08-30T15:06:59Z</time>
      </trkpt>
      <trkpt lat="42.47345" lon="1.99466">
        <ele>1315</ele>
        <time>2017-08-30T15:07:09Z</time>
      </trkpt>
      <trkpt lat="42.4733" lon="1.99495">
        <ele>1308</ele>
        <time>2017-08-30T15:07:30Z</time>
      </trkpt>
      <trkpt lat="42.47328" lon="1.99501">
        <ele>1310</ele>
        <time>2017-08-30T15:07:34Z</time>
      </trkpt>
      <trkpt lat="42.47324" lon="1.99505">
        <ele>1309</ele>
        <time>2017-08-30T15:07:39Z</time>
      </trkpt>
      <trkpt lat="42.4732" lon="1.9951">
        <ele>1307</ele>
        <time>2017-08-30T15:07:45Z</time>
      </trkpt>
      <trkpt lat="42.47317" lon="1.99515">
        <ele>1306</ele>
        <time>2017-08-30T15:07:50Z</time>
      </trkpt>
      <trkpt lat="42.47313" lon="1.99518">
        <ele>1305</ele>
        <time>2017-08-30T15:07:55Z</time>
      </trkpt>
      <trkpt lat="42.47308" lon="1.9952">
        <ele>1305</ele>
        <time>2017-08-30T15:08:00Z</time>
      </trkpt>
      <trkpt lat="42.47303" lon="1.99518">
        <ele>1304</ele>
        <time>2017-08-30T15:08:05Z</time>
      </trkpt>
      <trkpt lat="42.47301" lon="1.99513">
        <ele>1303</ele>
        <time>2017-08-30T15:08:10Z</time>
      </trkpt>
      <trkpt lat="42.47299" lon="1.99504">
        <ele>1303</ele>
        <time>2017-08-30T15:08:22Z</time>
      </trkpt>
      <trkpt lat="42.47301" lon="1.99491">
        <ele>1299</ele>
        <time>2017-08-30T15:08:33Z</time>
      </trkpt>
      <trkpt lat="42.47304" lon="1.99485">
        <ele>1299</ele>
        <time>2017-08-30T15:08:39Z</time>
      </trkpt>
      <trkpt lat="42.47304" lon="1.99472">
        <ele>1298</ele>
        <time>2017-08-30T15:08:51Z</time>
      </trkpt>
      <trkpt lat="42.47312" lon="1.99435">
        <ele>1297</ele>
        <time>2017-08-30T15:09:22Z</time>
      </trkpt>
      <trkpt lat="42.47314" lon="1.99429">
        <ele>1297</ele>
        <time>2017-08-30T15:09:27Z</time>
      </trkpt>
      <trkpt lat="42.47306" lon="1.99436">
        <ele>1296</ele>
        <time>2017-08-30T15:10:13Z</time>
      </trkpt>
      <trkpt lat="42.47302" lon="1.9944">
        <ele>1296</ele>
        <time>2017-08-30T15:10:19Z</time>
      </trkpt>
      <trkpt lat="42.47292" lon="1.99445">
        <ele>1295</ele>
        <time>2017-08-30T15:10:30Z</time>
      </trkpt>
      <trkpt lat="42.47289" lon="1.99449">
        <ele>1294</ele>
        <time>2017-08-30T15:10:35Z</time>
      </trkpt>
      <trkpt lat="42.47285" lon="1.99455">
        <ele>1294</ele>
        <time>2017-08-30T15:10:41Z</time>
      </trkpt>
      <trkpt lat="42.47281" lon="1.99458">
        <ele>1294</ele>
        <time>2017-08-30T15:10:45Z</time>
      </trkpt>
      <trkpt lat="42.47277" lon="1.99462">
        <ele>1294</ele>
        <time>2017-08-30T15:10:50Z</time>
      </trkpt>
      <trkpt lat="42.47271" lon="1.99472">
        <ele>1293</ele>
        <time>2017-08-30T15:11:02Z</time>
      </trkpt>
      <trkpt lat="42.47267" lon="1.99484">
        <ele>1293</ele>
        <time>2017-08-30T15:11:11Z</time>
      </trkpt>
      <trkpt lat="42.47252" lon="1.99528">
        <ele>1296</ele>
        <time>2017-08-30T15:11:41Z</time>
      </trkpt>
      <trkpt lat="42.47248" lon="1.9954">
        <ele>1282</ele>
        <time>2017-08-30T15:11:50Z</time>
      </trkpt>
      <trkpt lat="42.47245" lon="1.99546">
        <ele>1282</ele>
        <time>2017-08-30T15:12:03Z</time>
      </trkpt>
      <trkpt lat="42.47242" lon="1.99541">
        <ele>1282</ele>
        <time>2017-08-30T15:12:12Z</time>
      </trkpt>
      <trkpt lat="42.47232" lon="1.99533">
        <ele>1281</ele>
        <time>2017-08-30T15:12:30Z</time>
      </trkpt>
      <trkpt lat="42.4722" lon="1.9952">
        <ele>1279</ele>
        <time>2017-08-30T15:12:47Z</time>
      </trkpt>
      <trkpt lat="42.47213" lon="1.99502">
        <ele>1278</ele>
        <time>2017-08-30T15:13:48Z</time>
      </trkpt>
      <trkpt lat="42.47213" lon="1.99501">
        <ele>1278</ele>
        <time>2017-08-30T15:13:48Z</time>
      </trkpt>
      <trkpt lat="42.47211" lon="1.99495">
        <ele>1275</ele>
        <time>2017-08-30T15:13:54Z</time>
      </trkpt>
      <trkpt lat="42.47211" lon="1.99487">
        <ele>1275</ele>
        <time>2017-08-30T15:14:06Z</time>
      </trkpt>
      <trkpt lat="42.4721" lon="1.99481">
        <ele>1275</ele>
        <time>2017-08-30T15:14:11Z</time>
      </trkpt>
      <trkpt lat="42.4721" lon="1.99474">
        <ele>1274</ele>
        <time>2017-08-30T15:14:16Z</time>
      </trkpt>
      <trkpt lat="42.47213" lon="1.99462">
        <ele>1274</ele>
        <time>2017-08-30T15:14:28Z</time>
      </trkpt>
      <trkpt lat="42.47217" lon="1.99451">
        <ele>1274</ele>
        <time>2017-08-30T15:14:46Z</time>
      </trkpt>
      <trkpt lat="42.47224" lon="1.99427">
        <ele>1275</ele>
        <time>2017-08-30T15:15:05Z</time>
      </trkpt>
      <trkpt lat="42.47225" lon="1.99407">
        <ele>1271</ele>
        <time>2017-08-30T15:15:22Z</time>
      </trkpt>
      <trkpt lat="42.47225" lon="1.99386">
        <ele>1269</ele>
        <time>2017-08-30T15:15:36Z</time>
      </trkpt>
      <trkpt lat="42.47222" lon="1.99379">
        <ele>1269</ele>
        <time>2017-08-30T15:15:41Z</time>
      </trkpt>
      <trkpt lat="42.47218" lon="1.99376">
        <ele>1268</ele>
        <time>2017-08-30T15:15:46Z</time>
      </trkpt>
      <trkpt lat="42.47213" lon="1.99375">
        <ele>1267</ele>
        <time>2017-08-30T15:15:50Z</time>
      </trkpt>
      <trkpt lat="42.47204" lon="1.9938">
        <ele>1267</ele>
        <time>2017-08-30T15:16:00Z</time>
      </trkpt>
      <trkpt lat="42.4719" lon="1.99407">
        <ele>1265</ele>
        <time>2017-08-30T15:16:23Z</time>
      </trkpt>
      <trkpt lat="42.47172" lon="1.99452">
        <ele>1269</ele>
        <time>2017-08-30T15:16:58Z</time>
      </trkpt>
      <trkpt lat="42.47153" lon="1.99492">
        <ele>1261</ele>
        <time>2017-08-30T15:17:30Z</time>
      </trkpt>
      <trkpt lat="42.47142" lon="1.99517">
        <ele>1261</ele>
        <time>2017-08-30T15:17:50Z</time>
      </trkpt>
      <trkpt lat="42.47135" lon="1.99526">
        <ele>1260</ele>
        <time>2017-08-30T15:17:59Z</time>
      </trkpt>
      <trkpt lat="42.47129" lon="1.99526">
        <ele>1259</ele>
        <time>2017-08-30T15:18:04Z</time>
      </trkpt>
      <trkpt lat="42.47125" lon="1.99525">
        <ele>1259</ele>
        <time>2017-08-30T15:18:09Z</time>
      </trkpt>
      <trkpt lat="42.47115" lon="1.99521">
        <ele>1257</ele>
        <time>2017-08-30T15:18:20Z</time>
      </trkpt>
      <trkpt lat="42.47105" lon="1.9952">
        <ele>1256</ele>
        <time>2017-08-30T15:18:34Z</time>
      </trkpt>
      <trkpt lat="42.471" lon="1.99519">
        <ele>1256</ele>
        <time>2017-08-30T15:18:39Z</time>
      </trkpt>
      <trkpt lat="42.47096" lon="1.99517">
        <ele>1255</ele>
        <time>2017-08-30T15:18:44Z</time>
      </trkpt>
      <trkpt lat="42.47086" lon="1.99514">
        <ele>1254</ele>
        <time>2017-08-30T15:18:54Z</time>
      </trkpt>
      <trkpt lat="42.47081" lon="1.99512">
        <ele>1249</ele>
        <time>2017-08-30T15:18:59Z</time>
      </trkpt>
      <trkpt lat="42.47077" lon="1.99512">
        <ele>1249</ele>
        <time>2017-08-30T15:19:04Z</time>
      </trkpt>
      <trkpt lat="42.47072" lon="1.99516">
        <ele>1249</ele>
        <time>2017-08-30T15:19:10Z</time>
      </trkpt>
      <trkpt lat="42.47062" lon="1.99539">
        <ele>1248</ele>
        <time>2017-08-30T15:19:31Z</time>
      </trkpt>
      <trkpt lat="42.47048" lon="1.99544">
        <ele>1248</ele>
        <time>2017-08-30T15:19:45Z</time>
      </trkpt>
      <trkpt lat="42.47023" lon="1.99546">
        <ele>1246</ele>
        <time>2017-08-30T15:20:12Z</time>
      </trkpt>
      <trkpt lat="42.46999" lon="1.99557">
        <ele>1241</ele>
        <time>2017-08-30T15:20:38Z</time>
      </trkpt>
      <trkpt lat="42.46989" lon="1.99558">
        <ele>1240</ele>
        <time>2017-08-30T15:20:49Z</time>
      </trkpt>
      <trkpt lat="42.4696" lon="1.99568">
        <ele>1238</ele>
        <time>2017-08-30T15:21:21Z</time>
      </trkpt>
      <trkpt lat="42.46955" lon="1.99568">
        <ele>1238</ele>
        <time>2017-08-30T15:21:26Z</time>
      </trkpt>
      <trkpt lat="42.46945" lon="1.99572">
        <ele>1237</ele>
        <time>2017-08-30T15:21:36Z</time>
      </trkpt>
      <trkpt lat="42.4694" lon="1.99573">
        <ele>1237</ele>
        <time>2017-08-30T15:21:41Z</time>
      </trkpt>
      <trkpt lat="42.4693" lon="1.99574">
        <ele>1236</ele>
        <time>2017-08-30T15:21:54Z</time>
      </trkpt>
      <trkpt lat="42.46922" lon="1.99575">
        <ele>1235</ele>
        <time>2017-08-30T15:22:10Z</time>
      </trkpt>
      <trkpt lat="42.46902" lon="1.99572">
        <ele>1231</ele>
        <time>2017-08-30T15:22:29Z</time>
      </trkpt>
      <trkpt lat="42.46897" lon="1.99574">
        <ele>1231</ele>
        <time>2017-08-30T15:22:34Z</time>
      </trkpt>
      <trkpt lat="42.46892" lon="1.99574">
        <ele>1231</ele>
        <time>2017-08-30T15:22:39Z</time>
      </trkpt>
      <trkpt lat="42.46888" lon="1.9957">
        <ele>1230</ele>
        <time>2017-08-30T15:22:44Z</time>
      </trkpt>
      <trkpt lat="42.46883" lon="1.9957">
        <ele>1230</ele>
        <time>2017-08-30T15:22:48Z</time>
      </trkpt>
      <trkpt lat="42.46878" lon="1.99571">
        <ele>1230</ele>
        <time>2017-08-30T15:22:53Z</time>
      </trkpt>
      <trkpt lat="42.46866" lon="1.99584">
        <ele>1228</ele>
        <time>2017-08-30T15:23:08Z</time>
      </trkpt>
      <trkpt lat="42.46856" lon="1.99581">
        <ele>1228</ele>
        <time>2017-08-30T15:23:16Z</time>
      </trkpt>
      <trkpt lat="42.46845" lon="1.99586">
        <ele>1226</ele>
        <time>2017-08-30T15:23:26Z</time>
      </trkpt>
      <trkpt lat="42.46835" lon="1.99585">
        <ele>1225</ele>
        <time>2017-08-30T15:23:37Z</time>
      </trkpt>
      <trkpt lat="42.4683" lon="1.99586">
        <ele>1224</ele>
        <time>2017-08-30T15:23:42Z</time>
      </trkpt>
      <trkpt lat="42.46829" lon="1.99595">
        <ele>1223</ele>
        <time>2017-08-30T15:23:54Z</time>
      </trkpt>
      <trkpt lat="42.46827" lon="1.99601">
        <ele>1223</ele>
        <time>2017-08-30T15:23:58Z</time>
      </trkpt>
      <trkpt lat="42.46816" lon="1.99616">
        <ele>1222</ele>
        <time>2017-08-30T15:24:17Z</time>
      </trkpt>
      <trkpt lat="42.46813" lon="1.99621">
        <ele>1221</ele>
        <time>2017-08-30T15:24:21Z</time>
      </trkpt>
      <trkpt lat="42.46799" lon="1.99637">
        <ele>1221</ele>
        <time>2017-08-30T15:24:48Z</time>
      </trkpt>
      <trkpt lat="42.46798" lon="1.99643">
        <ele>1221</ele>
        <time>2017-08-30T15:24:55Z</time>
      </trkpt>
      <trkpt lat="42.46793" lon="1.99648">
        <ele>1221</ele>
        <time>2017-08-30T15:25:13Z</time>
      </trkpt>
      <trkpt lat="42.46791" lon="1.99653">
        <ele>1220</ele>
        <time>2017-08-30T15:25:18Z</time>
      </trkpt>
      <trkpt lat="42.46793" lon="1.99666">
        <ele>1221</ele>
        <time>2017-08-30T15:25:26Z</time>
      </trkpt>
      <trkpt lat="42.46792" lon="1.99672">
        <ele>1221</ele>
        <time>2017-08-30T15:25:32Z</time>
      </trkpt>
      <trkpt lat="42.46791" lon="1.99678">
        <ele>1221</ele>
        <time>2017-08-30T15:25:38Z</time>
      </trkpt>
      <trkpt lat="42.46789" lon="1.99687">
        <ele>1221</ele>
        <time>2017-08-30T15:25:50Z</time>
      </trkpt>
      <trkpt lat="42.46787" lon="1.99694">
        <ele>1221</ele>
        <time>2017-08-30T15:26:03Z</time>
      </trkpt>
      <trkpt lat="42.46794" lon="1.997">
        <ele>1221</ele>
        <time>2017-08-30T15:26:44Z</time>
      </trkpt>
      <trkpt lat="42.46797" lon="1.99706">
        <ele>1221</ele>
        <time>2017-08-30T15:26:50Z</time>
      </trkpt>
      <trkpt lat="42.46799" lon="1.99719">
        <ele>1221</ele>
        <time>2017-08-30T15:27:02Z</time>
      </trkpt>
      <trkpt lat="42.46812" lon="1.99749">
        <ele>1222</ele>
        <time>2017-08-30T15:27:31Z</time>
      </trkpt>
      <trkpt lat="42.46815" lon="1.99752">
        <ele>1222</ele>
        <time>2017-08-30T15:27:36Z</time>
      </trkpt>
      <trkpt lat="42.46817" lon="1.99759">
        <ele>1222</ele>
        <time>2017-08-30T15:27:43Z</time>
      </trkpt>
      <trkpt lat="42.4682" lon="1.99764">
        <ele>1222</ele>
        <time>2017-08-30T15:27:49Z</time>
      </trkpt>
      <trkpt lat="42.46821" lon="1.9977">
        <ele>1222</ele>
        <time>2017-08-30T15:27:56Z</time>
      </trkpt>
      <trkpt lat="42.46819" lon="1.99783">
        <ele>1222</ele>
        <time>2017-08-30T15:28:06Z</time>
      </trkpt>
      <trkpt lat="42.4682" lon="1.99796">
        <ele>1222</ele>
        <time>2017-08-30T15:28:15Z</time>
      </trkpt>
      <trkpt lat="42.46819" lon="1.99805">
        <ele>1222</ele>
        <time>2017-08-30T15:28:36Z</time>
      </trkpt>
      <trkpt lat="42.46827" lon="1.99806">
        <ele>1222</ele>
        <time>2017-08-30T15:30:03Z</time>
      </trkpt>
      <trkpt lat="42.46836" lon="1.99809">
        <ele>1225</ele>
        <time>2017-08-30T15:30:16Z</time>
      </trkpt>
      <trkpt lat="42.46841" lon="1.99808">
        <ele>1225</ele>
        <time>2017-08-30T15:30:24Z</time>
      </trkpt>
      <trkpt lat="42.4685" lon="1.99814">
        <ele>1225</ele>
        <time>2017-08-30T15:30:36Z</time>
      </trkpt>
      <trkpt lat="42.46855" lon="1.99826">
        <ele>1225</ele>
        <time>2017-08-30T15:30:46Z</time>
      </trkpt>
    </trkseg>
  </trk>
</gpx>